M I D A S
Marine Information and Data Acquisition System
Tripno 1216 of the Zeeleeuw from 2007-02-22 07:44:22 to 2007-02-22 15:07:47
Back to CruiseResearch ActivitiesStationsMapUnderway DataData graphs

EquipmentUnitsComment
TimeDGPSUTC
LatitudeDGPSDM.mWGS84
LongitudeDGPSDM.mWGS84
TemperatureSBE03/SBE38deg celciusITS90
ConductivitySBE21S/mITS90
SalinitySBE21 Practical Salinity Units
ChlorophylAChelsea fluorimeterg/lCalibrated in Aceton
Missing or incorrect values are displayed as -999
Sea surface data collected by the RV Zeeleeuw from 2007-02-22 07:45:23 to 2007-02-22 15:16:21
                                                                                    Next 1000 lines
Time Latitude Longitude Temperature Conductivity Salinity ChlorophylA
2007-02-22 07:45:32 51°13.597 2°56.093 15.9867 0.082893 0.437113 -2.871232
2007-02-22 07:45:38 51°13.598 2°56.091 16.1026 0.083408 0.439923 -2.871232
2007-02-22 07:45:43 51°13.599 2°56.088 16.0216 0.083305 0.439361 -2.871232
2007-02-22 07:45:48 51°13.6 2°56.085 16.0356 0.083305 0.439361 -2.871232
2007-02-22 07:45:53 51°13.601 2°56.081 16.0309 0.083099 0.438245 -2.871232
2007-02-22 07:45:58 51°13.602 2°56.077 16.0001 0.082996 0.437683 -2.871232
2007-02-22 07:46:04 51°13.604 2°56.071 16.0219 0.082996 0.437683 -2.871232
2007-02-22 07:46:10 51°13.606 2°56.063 16.0663 0.083099 0.438253 -2.871232
2007-02-22 07:46:15 51°13.608 2°56.056 16.07 0.083099 0.438253 -2.871232
2007-02-22 07:46:21 51°13.611 2°56.047 16.0931 0.083099 0.438253 -2.871232
2007-02-22 07:46:26 51°13.614 2°56.039 16.0902 0.083099 0.438253 -2.871232
2007-02-22 07:46:32 51°13.617 2°56.028 16.1494 0.083099 0.438253 -2.871232
2007-02-22 07:46:36 51°13.619 2°56.021 16.2001 0.083202 0.438815 -2.871232
2007-02-22 07:46:42 51°13.622 2°56.011 16.1929 0.083305 0.439377 -2.871232
2007-02-22 07:46:47 51°13.624 2°56.001 16.1828 0.082893 0.437129 -2.871232
2007-02-22 07:46:52 51°13.627 2°55.992 16.1988 0.082893 0.437129 -2.871232
2007-02-22 07:46:56 51°13.63 2°55.984 16.1937 0.083099 0.438261 -2.871232
2007-02-22 07:47:02 51°13.633 2°55.972 16.1847 0.082996 0.4377 -2.871232
2007-02-22 07:47:06 51°13.636 2°55.964 16.1844 0.082996 0.437708 -2.871232
2007-02-22 07:47:12 51°13.64 2°55.952 16.2201 0.083305 0.439394 -2.871232
2007-02-22 07:47:17 51°13.644 2°55.942 16.2144 0.083202 0.43884 -2.871232
2007-02-22 07:47:22 51°13.647 2°55.932 16.246 0.083202 0.43884 -2.871232
2007-02-22 07:47:26 51°13.65 2°55.924 16.2346 0.083099 0.438278 -2.871232
2007-02-22 07:47:31 51°13.653 2°55.915 16.2118 0.083202 0.43884 -2.871232
2007-02-22 07:47:36 51°13.657 2°55.906 16.1929 0.083202 0.43884 -2.871232
2007-02-22 07:47:42 51°13.661 2°55.895 16.1711 0.083099 0.438278 -2.871232
2007-02-22 07:47:46 51°13.664 2°55.888 16.1805 0.083099 0.438278 -2.871232
2007-02-22 07:47:51 51°13.668 2°55.879 16.1924 0.083099 0.438278 -2.871232
2007-02-22 07:47:56 51°13.671 2°55.87 16.1996 0.083202 0.438848 -2.871232
2007-02-22 07:48:02 51°13.675 2°55.859 16.245 0.083099 0.438286 -2.871232
2007-02-22 07:48:07 51°13.679 2°55.851 16.226 0.082996 0.437724 -2.871232
2007-02-22 07:48:12 51°13.683 2°55.842 16.2308 0.083099 0.438294 -2.871232
2007-02-22 07:48:16 51°13.686 2°55.835 16.2614 0.083099 0.438294 -2.871232
2007-02-22 07:48:22 51°13.69 2°55.825 16.2262 0.083099 0.438294 -2.871232
2007-02-22 07:48:27 51°13.694 2°55.817 16.2405 0.082996 0.437732 -2.871232
2007-02-22 07:48:32 51°13.698 2°55.809 16.2126 0.083202 0.438865 -2.871232
2007-02-22 07:48:36 51°13.701 2°55.803 16.1921 0.083099 0.438303 -2.871232
2007-02-22 07:48:42 51°13.706 2°55.793 16.2038 0.083305 0.439435 -2.871232
2007-02-22 07:48:47 51°13.711 2°55.785 16.1666 0.083099 0.438311 -2.871232
2007-02-22 07:48:52 51°13.716 2°55.778 16.1815 0.083099 0.438311 -2.871232
2007-02-22 07:48:57 51°13.72 2°55.77 16.1898 0.083202 0.438881 -2.871232
2007-02-22 07:49:02 51°13.725 2°55.763 16.2004 0.083099 0.438319 -2.871232
2007-02-22 07:49:06 51°13.729 2°55.757 16.1979 0.082996 0.437757 -2.871232
2007-02-22 07:49:12 51°13.735 2°55.749 16.2058 0.083202 0.438889 -2.871232
2007-02-22 07:49:17 51°13.74 2°55.742 16.1772 0.082996 0.437765 -2.871232
2007-02-22 07:49:22 51°13.746 2°55.736 16.1969 0.082996 0.437765 -2.871232
2007-02-22 07:49:26 51°13.75 2°55.731 16.1859 0.083202 0.438889 -2.871232
2007-02-22 07:49:31 51°13.755 2°55.724 16.2489 0.083202 0.438889 -2.871232
2007-02-22 07:49:37 51°13.762 2°55.717 16.2329 0.083099 0.438336 -2.871232
2007-02-22 07:49:42 51°13.768 2°55.711 16.2192 0.083099 0.438344 -2.871232
2007-02-22 07:49:46 51°13.773 2°55.707 16.1791 0.083099 0.438344 -2.871232
2007-02-22 07:49:51 51°13.779 2°55.701 16.2389 0.083099 0.438344 -2.871232
2007-02-22 07:49:57 51°13.787 2°55.694 16.143 0.082996 0.437782 -2.871232
2007-02-22 07:50:02 51°13.793 2°55.689 16.1362 0.083202 0.438906 -2.871232
2007-02-22 07:50:06 51°13.799 2°55.684 16.1195 0.082996 0.43779 -2.871232
2007-02-22 07:50:12 51°13.806 2°55.677 16.0584 0.083099 0.438352 -2.871232
2007-02-22 07:50:16 51°13.811 2°55.673 16.1015 0.082996 0.437798 -2.871232
2007-02-22 07:50:22 51°13.819 2°55.665 16.1113 0.082996 0.437798 -2.871232
2007-02-22 07:50:27 51°13.826 2°55.659 16.1557 0.082893 0.437245 -2.871232
2007-02-22 07:50:32 51°13.833 2°55.652 16.2642 0.082996 0.437807 -2.871232
2007-02-22 07:50:36 51°13.838 2°55.647 16.2626 0.082996 0.437798 -2.871232
2007-02-22 07:50:42 51°13.845 2°55.64 16.2025 0.083099 0.43836 -2.871232
2007-02-22 07:50:47 51°13.851 2°55.634 16.2503 0.083099 0.43836 -2.871232
2007-02-22 07:50:52 51°13.856 2°55.629 16.1885 0.083099 0.43836 -2.871232
2007-02-22 07:50:56 51°13.859 2°55.626 16.1873 0.08279 0.436666 -2.871232
2007-02-22 07:51:01 51°13.862 2°55.623 16.0841 0.083202 0.438922 -2.871232
2007-02-22 07:51:06 51°13.865 2°55.62 16.2243 0.082996 0.437798 -2.871232
2007-02-22 07:51:11 51°13.867 2°55.619 16.2373 0.083202 0.438931 -2.871232
2007-02-22 07:51:15 51°13.867 2°55.619 16.2207 0.083202 0.438939 -2.871232
2007-02-22 07:51:20 51°13.868 2°55.619 16.1196 0.083202 0.438939 -2.871232
2007-02-22 07:51:25 51°13.868 2°55.619 15.9939 0.082996 0.437815 -2.871232
2007-02-22 07:51:30 51°13.868 2°55.618 16.0339 0.083099 0.438385 -2.871232
2007-02-22 07:51:35 51°13.869 2°55.618 15.999 0.083099 0.438393 -2.871232
2007-02-22 07:51:40 51°13.87 2°55.617 15.9342 0.083305 0.439526 -2.871232
2007-02-22 07:51:44 51°13.871 2°55.617 16.1328 0.083099 0.43841 -2.871232
2007-02-22 07:51:49 51°13.874 2°55.616 16.1692 0.083099 0.43841 -2.871232
2007-02-22 07:51:54 51°13.877 2°55.616 16.0878 0.083099 0.438418 -2.871232
2007-02-22 07:51:59 51°13.88 2°55.614 16.1306 0.08279 0.436732 -2.871232
2007-02-22 07:52:04 51°13.884 2°55.614 16.1352 0.083202 0.43898 -2.871232
2007-02-22 07:52:10 51°13.889 2°55.613 16.1529 0.082893 0.437294 -2.871232
2007-02-22 07:52:15 51°13.894 2°55.613 16.1484 0.083099 0.438426 -2.871232
2007-02-22 07:52:21 51°13.9 2°55.612 16.1558 0.083099 0.438426 -2.871232
2007-02-22 07:52:26 51°13.906 2°55.612 16.1932 0.082996 0.437864 -2.871232
2007-02-22 07:52:32 51°13.913 2°55.612 16.2077 0.082893 0.43731 -2.871232
2007-02-22 07:52:36 51°13.917 2°55.613 16.2386 0.082996 0.437872 -2.871232
2007-02-22 07:52:42 51°13.924 2°55.613 16.231 0.082996 0.437889 -2.871232
2007-02-22 07:52:47 51°13.93 2°55.613 16.2368 0.083099 0.438451 -2.871232
2007-02-22 07:52:52 51°13.935 2°55.613 16.2385 0.083099 0.438451 -2.871232
2007-02-22 07:52:56 51°13.939 2°55.614 16.2534 0.083099 0.438459 -2.871232
2007-02-22 07:53:01 51°13.944 2°55.614 16.2804 0.083099 0.438459 -2.871232
2007-02-22 07:53:06 51°13.949 2°55.614 16.2821 0.083099 0.438459 -2.871232
2007-02-22 07:53:11 51°13.953 2°55.615 16.2833 0.082893 0.437335 -2.871232
2007-02-22 07:53:16 51°13.956 2°55.615 16.2697 0.082996 0.437905 -2.871232
2007-02-22 07:53:21 51°13.959 2°55.616 16.2864 0.082996 0.437905 -2.871232
2007-02-22 07:53:26 51°13.962 2°55.615 16.3111 0.083099 0.438459 -2.871232
2007-02-22 07:53:30 51°13.962 2°55.615 16.2945 0.083099 0.438468 -2.871232
2007-02-22 07:53:35 51°13.963 2°55.614 16.2922 0.082893 0.437335 -2.871232
2007-02-22 07:53:40 51°13.962 2°55.611 16.2511 0.083202 0.439022 -2.871232
2007-02-22 07:53:44 51°13.961 2°55.609 16.2126 0.083099 0.438459 -2.871232
2007-02-22 07:53:50 51°13.96 2°55.603 16.0164 0.083099 0.438459 -2.871232
2007-02-22 07:53:54 51°13.959 2°55.599 15.7504 0.082893 0.437343 -2.871232
2007-02-22 07:53:59 51°13.958 2°55.593 15.9097 0.082893 0.43736 -2.871232
2007-02-22 07:54:03 51°13.958 2°55.587 15.7839 0.083202 0.439071 -2.871232
2007-02-22 07:54:08 51°13.958 2°55.578 15.8503 0.083099 0.438525 -2.871232
2007-02-22 07:54:13 51°13.959 2°55.569 15.8658 0.083099 0.438542 -2.871232
2007-02-22 07:54:18 51°13.961 2°55.56 15.8411 0.083099 0.438542 -2.871232
2007-02-22 07:54:23 51°13.963 2°55.551 15.7951 0.082996 0.437988 -2.871232
2007-02-22 07:54:28 51°13.967 2°55.542 15.7526 0.082996 0.437988 -2.871232
2007-02-22 07:54:33 51°13.971 2°55.534 15.9414 0.083099 0.43855 -2.871232
2007-02-22 07:54:38 51°13.975 2°55.527 16.0148 0.082996 0.437988 -2.871232
2007-02-22 07:54:43 51°13.98 2°55.52 16.017 0.083202 0.439112 -2.871232
2007-02-22 07:54:48 51°13.985 2°55.515 16.0956 0.083202 0.439112 -2.871232
2007-02-22 07:54:53 51°13.99 2°55.51 16.1031 0.082996 0.437988 -2.871232
2007-02-22 07:54:58 51°13.995 2°55.505 16.1783 0.082996 0.437979 -2.871232
2007-02-22 07:55:03 51°14.003 2°55.5 16.1513 0.082996 0.437988 -2.871232
2007-02-22 07:55:08 51°14.011 2°55.494 16.1453 0.082996 0.437979 -2.871232
2007-02-22 07:55:13 51°14.021 2°55.488 16.1427 0.083099 0.43855 -2.871232
2007-02-22 07:55:18 51°14.031 2°55.481 16.1273 0.083099 0.43855 -2.871232
2007-02-22 07:55:23 51°14.043 2°55.473 16.0057 0.082996 0.437988 -2.871232
2007-02-22 07:55:28 51°14.056 2°55.465 15.976 0.082893 0.437417 -2.871232
2007-02-22 07:55:33 51°14.07 2°55.457 15.9414 0.083099 0.43855 -2.871232
2007-02-22 07:55:38 51°14.084 2°55.448 15.7359 0.083099 0.438558 -2.871232
2007-02-22 07:55:43 51°14.098 2°55.439 15.8836 0.083099 0.43855 -2.871232
2007-02-22 07:55:48 51°14.113 2°55.43 16.0325 0.083099 0.43855 -2.871232
2007-02-22 07:55:53 51°14.128 2°55.421 16.0428 0.082893 0.437442 -2.871232
2007-02-22 07:55:58 51°14.143 2°55.41 16.0657 0.082996 0.438012 -2.871232
2007-02-22 07:56:03 51°14.158 2°55.398 16.0523 0.082996 0.438021 -2.871232
2007-02-22 07:56:08 51°14.173 2°55.386 15.9646 0.082996 0.438021 -2.871232
2007-02-22 07:56:13 51°14.188 2°55.373 16.0105 0.082996 0.438029 -2.871232
2007-02-22 07:56:18 51°14.202 2°55.359 16.1201 0.082996 0.438029 -2.871232
2007-02-22 07:56:23 51°14.215 2°55.344 16.141 0.083099 0.438608 -2.871232
2007-02-22 07:56:28 51°14.228 2°55.328 16.0521 0.082996 0.438054 -2.871232
2007-02-22 07:56:33 51°14.239 2°55.311 15.9913 0.08279 0.436937 -2.871232
2007-02-22 07:56:38 51°14.25 2°55.293 16.0977 0.082996 0.438062 -2.871232
2007-02-22 07:56:43 51°14.261 2°55.276 16.1195 0.082996 0.43807 -2.871232
2007-02-22 07:56:48 51°14.271 2°55.257 16.0306 0.082996 0.43807 -2.871232
2007-02-22 07:56:53 51°14.281 2°55.239 15.9563 0.08279 0.436945 -2.871232
2007-02-22 07:56:58 51°14.29 2°55.22 16.0123 0.082893 0.4375 -2.871232
2007-02-22 07:57:03 51°14.299 2°55.201 16.0168 0.082893 0.437508 -2.871232
2007-02-22 07:57:08 51°14.308 2°55.182 15.9523 0.082893 0.437508 -2.871232
2007-02-22 07:57:13 51°14.317 2°55.162 15.923 0.082996 0.43807 -2.871232
2007-02-22 07:57:18 51°14.326 2°55.143 15.9342 0.082996 0.43807 -2.871232
2007-02-22 07:57:23 51°14.334 2°55.123 15.997 0.083099 0.438633 -2.871232
2007-02-22 07:57:28 51°14.343 2°55.103 15.8416 0.083099 0.438633 -2.871232
2007-02-22 07:57:33 51°14.352 2°55.082 15.6403 0.082996 0.43807 -2.871232
2007-02-22 07:57:38 51°14.363 2°55.061 15.6357 0.082893 0.4375 -2.871232
2007-02-22 07:57:43 51°14.373 2°55.04 15.8402 0.08279 0.436937 -2.871232
2007-02-22 07:57:48 51°14.385 2°55.019 15.7972 0.08279 0.436937 -2.871232
2007-02-22 07:57:53 51°14.397 2°54.997 15.9344 0.083202 0.439203 -2.871232
2007-02-22 07:57:58 51°14.409 2°54.976 15.9304 0.083099 0.438641 -2.871232
2007-02-22 07:58:03 51°14.422 2°54.954 15.9096 0.083099 0.438649 -2.871232
2007-02-22 07:58:08 51°14.435 2°54.932 15.866 0.083099 0.438657 -2.871232
2007-02-22 07:58:13 51°14.448 2°54.91 15.6852 0.082996 0.438103 -2.871232
2007-02-22 07:58:18 51°14.461 2°54.888 15.7641 0.082996 0.438103 -2.871232
2007-02-22 07:58:23 51°14.475 2°54.867 15.8944 0.082996 0.438095 -2.871232
2007-02-22 07:58:28 51°14.489 2°54.847 15.9216 0.082996 0.438103 -2.871232
2007-02-22 07:58:33 51°14.503 2°54.828 15.8177 0.082996 0.438111 -2.871232
2007-02-22 07:58:38 51°14.518 2°54.808 15.8469 0.082996 0.438103 -2.871232
2007-02-22 07:58:43 51°14.533 2°54.79 15.8534 0.082893 0.437557 -2.871232
2007-02-22 07:58:48 51°14.548 2°54.773 15.8329 0.082893 0.437557 -2.871232
2007-02-22 07:58:53 51°14.564 2°54.755 15.9742 0.082893 0.437557 -2.871232
2007-02-22 07:58:58 51°14.579 2°54.738 15.9178 0.083099 0.438699 -2.871232
2007-02-22 07:59:03 51°14.594 2°54.72 15.8812 0.082893 0.437582 -2.871232
2007-02-22 07:59:08 51°14.609 2°54.702 15.931 0.082893 0.437582 -2.871232
2007-02-22 07:59:13 51°14.624 2°54.683 15.9269 0.083099 0.438715 -2.871232
2007-02-22 07:59:18 51°14.639 2°54.664 15.929 0.083099 0.438715 -2.871232
2007-02-22 07:59:23 51°14.653 2°54.644 15.9587 0.082893 0.43759 -2.871232
2007-02-22 07:59:28 51°14.667 2°54.624 15.7875 0.082996 0.438169 -2.871232
2007-02-22 07:59:33 51°14.681 2°54.603 15.9147 0.082996 0.438161 -2.871232
2007-02-22 07:59:38 51°14.695 2°54.582 15.8996 0.082996 0.438161 -2.871232
2007-02-22 07:59:43 51°14.709 2°54.561 15.7068 0.083202 0.439294 -2.871232
2007-02-22 07:59:48 51°14.723 2°54.54 15.8 0.083202 0.439294 -2.871232
2007-02-22 07:59:53 51°14.737 2°54.519 15.7686 0.083099 0.438723 -2.871232
2007-02-22 07:59:58 51°14.751 2°54.497 15.7781 0.082893 0.437607 -2.871232
2007-02-22 08:00:03 51°14.765 2°54.476 15.8484 0.083099 0.438732 -2.871232
2007-02-22 08:00:08 51°14.779 2°54.455 15.7336 0.083099 0.43874 -2.871232
2007-02-22 08:00:13 51°14.793 2°54.434 15.8384 0.082996 0.438186 -2.871232
2007-02-22 08:00:18 51°14.806 2°54.412 15.8452 0.082996 0.438186 -2.871232
2007-02-22 08:00:23 51°14.82 2°54.39 15.7943 0.082996 0.438194 -2.871232
2007-02-22 08:00:28 51°14.833 2°54.368 15.8062 0.082996 0.438202 -2.871232
2007-02-22 08:00:33 51°14.846 2°54.346 15.7611 0.08279 0.437077 -2.871232
2007-02-22 08:00:38 51°14.859 2°54.323 15.7486 0.082893 0.43764 -2.871232
2007-02-22 08:00:43 51°14.872 2°54.3 15.8112 0.083099 0.438773 -2.871232
2007-02-22 08:00:48 51°14.885 2°54.278 15.7623 0.083099 0.438773 -2.871232
2007-02-22 08:00:53 51°14.899 2°54.256 15.7835 0.08279 0.437077 -2.871232
2007-02-22 08:00:58 51°14.912 2°54.234 15.7802 0.082996 0.438202 -2.871232
2007-02-22 08:01:03 51°14.925 2°54.212 15.7434 0.082996 0.43821 -2.871232
2007-02-22 08:01:08 51°14.939 2°54.19 15.7458 0.083099 0.438773 -2.871232
2007-02-22 08:01:13 51°14.952 2°54.169 15.8165 0.083099 0.438781 -2.871232
2007-02-22 08:01:18 51°14.965 2°54.147 15.7131 0.083099 0.438781 -2.871232
2007-02-22 08:01:23 51°14.978 2°54.125 15.6872 0.082996 0.438227 -2.871232
2007-02-22 08:01:28 51°14.991 2°54.103 15.5863 0.082893 0.437664 -2.871232
2007-02-22 08:01:33 51°15.003 2°54.081 15.7062 0.082996 0.438235 -2.871232
2007-02-22 08:01:38 51°15.016 2°54.059 15.7735 0.082996 0.438243 -2.871232
2007-02-22 08:01:43 51°15.029 2°54.036 15.7878 0.083099 0.438806 -2.871232
2007-02-22 08:01:48 51°15.042 2°54.013 15.7829 0.083099 0.438806 -2.871232
2007-02-22 08:01:53 51°15.055 2°53.991 15.7211 0.083099 0.438814 -2.871232
2007-02-22 08:01:58 51°15.068 2°53.969 15.7289 0.082893 0.437689 -2.871232
2007-02-22 08:02:03 51°15.082 2°53.947 15.7313 0.082996 0.438252 -2.871232
2007-02-22 08:02:08 51°15.095 2°53.925 15.7928 0.082893 0.437689 -2.871232
2007-02-22 08:02:13 51°15.109 2°53.904 15.7629 0.08279 0.437135 -2.871232
2007-02-22 08:02:18 51°15.122 2°53.883 15.8062 0.08279 0.437135 -2.871232
2007-02-22 08:02:23 51°15.136 2°53.862 15.8067 0.082893 0.437697 -2.871232
2007-02-22 08:02:28 51°15.15 2°53.841 15.743 0.083099 0.438839 -2.871232
2007-02-22 08:02:33 51°15.164 2°53.82 15.7502 0.083099 0.438839 -2.871232
2007-02-22 08:02:38 51°15.177 2°53.799 15.7881 0.082996 0.438276 -2.871232
2007-02-22 08:02:43 51°15.191 2°53.778 15.7719 0.083202 0.43941 -2.871232
2007-02-22 08:02:48 51°15.205 2°53.757 15.7927 0.083202 0.43941 -2.871232
2007-02-22 08:02:53 51°15.219 2°53.736 15.7642 0.083099 0.438847 -2.871232
2007-02-22 08:02:58 51°15.233 2°53.715 15.8029 0.08279 0.437168 -2.871232
2007-02-22 08:03:03 51°15.246 2°53.695 15.7924 0.082996 0.438293 -2.871232
2007-02-22 08:03:08 51°15.261 2°53.674 15.774 0.083202 0.439418 -2.871232
2007-02-22 08:03:13 51°15.275 2°53.653 15.6872 0.082996 0.438293 -2.871232
2007-02-22 08:03:18 51°15.288 2°53.632 15.7013 0.082996 0.438293 -2.871232
2007-02-22 08:03:23 51°15.303 2°53.612 15.6083 0.08279 0.437176 -2.871232
2007-02-22 08:03:28 51°15.317 2°53.591 15.7401 0.082996 0.438301 -2.871232
2007-02-22 08:03:33 51°15.332 2°53.573 15.684 0.082893 0.437738 -2.871232
2007-02-22 08:03:38 51°15.347 2°53.554 15.7475 0.082893 0.437738 -2.871232
2007-02-22 08:03:43 51°15.363 2°53.537 15.6758 0.082893 0.437747 -2.871232
2007-02-22 08:03:48 51°15.378 2°53.519 15.6913 0.082893 0.437747 -2.871232
2007-02-22 08:03:53 51°15.394 2°53.502 15.5679 0.082996 0.438318 -2.871232
2007-02-22 08:03:58 51°15.409 2°53.485 15.6953 0.082996 0.438318 -2.871232
2007-02-22 08:04:03 51°15.426 2°53.47 15.6432 0.082996 0.438318 -2.871232
2007-02-22 08:04:08 51°15.442 2°53.456 15.7548 0.082893 0.437763 -2.871232
2007-02-22 08:04:13 51°15.459 2°53.442 15.5911 0.082893 0.437755 -2.871232
2007-02-22 08:04:18 51°15.475 2°53.429 15.6086 0.082893 0.437755 -2.871232
2007-02-22 08:04:23 51°15.492 2°53.416 15.6371 0.082893 0.437771 -2.871232
2007-02-22 08:04:28 51°15.51 2°53.405 15.7181 0.082996 0.438326 -2.871232
2007-02-22 08:04:33 51°15.527 2°53.394 15.7034 0.082893 0.437763 -2.871232
2007-02-22 08:04:38 51°15.545 2°53.385 15.7265 0.08279 0.437209 -2.871232
2007-02-22 08:04:43 51°15.562 2°53.375 15.7151 0.082893 0.437771 -2.871232
2007-02-22 08:04:48 51°15.579 2°53.366 15.7543 0.082893 0.437771 -2.871232
2007-02-22 08:04:53 51°15.597 2°53.357 15.7106 0.082893 0.437771 -2.871232
2007-02-22 08:04:58 51°15.615 2°53.349 15.7338 0.082893 0.437788 -2.871232
2007-02-22 08:05:03 51°15.632 2°53.34 15.7392 0.083099 0.438913 -2.871232
2007-02-22 08:05:08 51°15.65 2°53.331 15.7673 0.082893 0.437796 -2.871232
2007-02-22 08:05:13 51°15.667 2°53.322 15.6347 0.082996 0.438367 -2.871232
2007-02-22 08:05:18 51°15.685 2°53.313 15.7259 0.082996 0.438367 -2.871232
2007-02-22 08:05:23 51°15.702 2°53.304 15.6905 0.082996 0.438359 -2.871232
2007-02-22 08:05:28 51°15.72 2°53.294 15.7125 0.082996 0.438359 -2.871232
2007-02-22 08:05:33 51°15.737 2°53.285 15.7237 0.083099 0.438913 -2.871232
2007-02-22 08:05:38 51°15.755 2°53.276 15.6824 0.083099 0.438913 -2.871232
2007-02-22 08:05:43 51°15.772 2°53.267 15.7028 0.082996 0.438359 -2.871232
2007-02-22 08:05:48 51°15.789 2°53.257 15.6513 0.082996 0.438359 -2.871232
2007-02-22 08:05:53 51°15.807 2°53.248 15.6497 0.08279 0.437233 -2.871232
2007-02-22 08:05:58 51°15.825 2°53.238 15.7057 0.082893 0.437796 -2.871232
2007-02-22 08:06:03 51°15.842 2°53.229 15.6681 0.083202 0.439493 -2.871232
2007-02-22 08:06:08 51°15.86 2°53.22 15.6876 0.082996 0.438375 -2.871232
2007-02-22 08:06:13 51°15.877 2°53.21 15.6607 0.082996 0.438375 -2.871232
2007-02-22 08:06:18 51°15.894 2°53.201 15.6979 0.082996 0.438375 -2.871232
2007-02-22 08:06:23 51°15.912 2°53.192 15.7086 0.082893 0.437813 -2.871232
2007-02-22 08:06:28 51°15.929 2°53.182 15.7011 0.082996 0.438375 -2.871232
2007-02-22 08:06:33 51°15.947 2°53.173 15.6695 0.082996 0.438384 -2.871232
2007-02-22 08:06:38 51°15.964 2°53.164 15.6523 0.082893 0.437821 -2.871232
2007-02-22 08:06:43 51°15.982 2°53.155 15.712 0.082893 0.437821 -2.871232
2007-02-22 08:06:48 51°15.999 2°53.145 15.6803 0.082893 0.437821 -2.871232
2007-02-22 08:06:53 51°16.017 2°53.136 15.706 0.082893 0.437821 -2.871232
2007-02-22 08:06:58 51°16.035 2°53.127 15.6289 0.08279 0.437258 -2.871232
2007-02-22 08:07:03 51°16.052 2°53.118 15.6736 0.08279 0.437258 -2.871232
2007-02-22 08:07:08 51°16.069 2°53.109 15.6689 0.082996 0.438392 -2.871232
2007-02-22 08:07:13 51°16.087 2°53.099 15.6184 0.082688 0.436704 -2.871232
2007-02-22 08:07:18 51°16.104 2°53.09 15.634 0.082688 0.436704 -2.871232
2007-02-22 08:07:23 51°16.121 2°53.081 15.6303 0.082996 0.438392 -2.871232
2007-02-22 08:07:28 51°16.139 2°53.071 15.6754 0.082893 0.437829 -2.871232
2007-02-22 08:07:33 51°16.156 2°53.062 15.6454 0.083099 0.438963 -2.871232
2007-02-22 08:07:38 51°16.174 2°53.052 15.6358 0.082996 0.4384 -2.871232
2007-02-22 08:07:43 51°16.191 2°53.043 15.6435 0.082688 0.436712 -2.871232
2007-02-22 08:07:48 51°16.209 2°53.033 15.6373 0.082688 0.436712 -2.871232
2007-02-22 08:07:53 51°16.226 2°53.024 15.6587 0.082996 0.438408 -2.871232
2007-02-22 08:07:58 51°16.243 2°53.014 15.6653 0.08279 0.437275 -2.871232
2007-02-22 08:08:03 51°16.261 2°53.004 15.6914 0.083099 0.438971 -2.871232
2007-02-22 08:08:08 51°16.278 2°52.995 15.6065 0.083202 0.439534 -2.871232
2007-02-22 08:08:13 51°16.296 2°52.985 15.6621 0.08279 0.437283 -2.871232
2007-02-22 08:08:18 51°16.313 2°52.976 15.5365 0.08279 0.437283 -2.871232
2007-02-22 08:08:23 51°16.33 2°52.966 15.6812 0.08279 0.437283 -2.871232
2007-02-22 08:08:28 51°16.348 2°52.956 15.6723 0.082893 0.437854 -2.871232
2007-02-22 08:08:33 51°16.365 2°52.946 15.6638 0.082996 0.438417 -2.871232
2007-02-22 08:08:38 51°16.383 2°52.937 15.6416 0.08279 0.437291 -2.871232
2007-02-22 08:08:43 51°16.4 2°52.927 15.6824 0.083099 0.43898 -2.871232
2007-02-22 08:08:48 51°16.418 2°52.917 15.6347 0.083099 0.43898 -2.871232
2007-02-22 08:08:53 51°16.435 2°52.908 15.6075 0.082893 0.437862 -2.871232
2007-02-22 08:08:58 51°16.452 2°52.898 15.6804 0.082996 0.438425 -2.871232
2007-02-22 08:09:03 51°16.47 2°52.889 15.6578 0.082996 0.438425 -2.871232
2007-02-22 08:09:08 51°16.487 2°52.879 15.6675 0.083099 0.438988 -2.871232
2007-02-22 08:09:13 51°16.505 2°52.87 15.5887 0.083099 0.438988 -2.871232
2007-02-22 08:09:18 51°16.522 2°52.86 15.6412 0.083099 0.438988 -2.871232
2007-02-22 08:09:23 51°16.54 2°52.851 15.5851 0.082893 0.437862 -2.871232
2007-02-22 08:09:28 51°16.557 2°52.841 15.5679 0.082893 0.437862 -2.871232
2007-02-22 08:09:33 51°16.575 2°52.832 15.6579 0.082996 0.438433 -2.871232
2007-02-22 08:09:38 51°16.592 2°52.822 15.6556 0.082996 0.438433 -2.871232
2007-02-22 08:09:43 51°16.61 2°52.813 15.6008 0.082893 0.43787 -2.871232
2007-02-22 08:09:48 51°16.627 2°52.804 15.6348 0.082893 0.43787 -2.871232
2007-02-22 08:09:53 51°16.645 2°52.794 15.6358 0.082996 0.438433 -2.871232
2007-02-22 08:09:58 51°16.662 2°52.785 15.6357 0.082996 0.438441 -2.871232
2007-02-22 08:10:03 51°16.68 2°52.776 15.643 0.083202 0.439559 -2.871232
2007-02-22 08:10:08 51°16.697 2°52.767 15.64 0.082893 0.437879 -2.871232
2007-02-22 08:10:13 51°16.714 2°52.758 15.6219 0.082893 0.437879 -2.871232
2007-02-22 08:10:18 51°16.732 2°52.749 15.634 0.082893 0.437879 -2.871232
2007-02-22 08:10:23 51°16.749 2°52.739 15.6742 0.082893 0.437879 -2.871232
2007-02-22 08:10:28 51°16.767 2°52.73 15.6709 0.08279 0.437316 -2.871232
2007-02-22 08:10:33 51°16.784 2°52.721 15.6611 0.082996 0.43845 -2.871232
2007-02-22 08:10:38 51°16.801 2°52.712 15.6461 0.082893 0.437887 -2.871232
2007-02-22 08:10:43 51°16.818 2°52.702 15.6571 0.083099 0.439013 -2.871232
2007-02-22 08:10:48 51°16.835 2°52.693 15.566 0.083099 0.439013 -2.871232
2007-02-22 08:10:53 51°16.853 2°52.683 15.5853 0.082996 0.438458 -2.871232
2007-02-22 08:10:58 51°16.87 2°52.674 15.6332 0.082996 0.43845 -2.871232
2007-02-22 08:11:03 51°16.887 2°52.664 15.5984 0.082996 0.43845 -2.871232
2007-02-22 08:11:08 51°16.904 2°52.655 15.6519 0.082893 0.437887 -2.871232
2007-02-22 08:11:13 51°16.922 2°52.646 15.6671 0.082996 0.438458 -2.871232
2007-02-22 08:11:18 51°16.939 2°52.637 15.6628 0.082996 0.438458 -2.871232
2007-02-22 08:11:23 51°16.957 2°52.627 15.593 0.082893 0.437895 -2.871232
2007-02-22 08:11:28 51°16.974 2°52.618 15.6323 0.08279 0.437332 -2.871232
2007-02-22 08:11:33 51°16.992 2°52.609 15.5468 0.082688 0.436769 -2.871232
2007-02-22 08:11:38 51°17.01 2°52.599 15.6374 0.08279 0.437341 -2.871232
2007-02-22 08:11:43 51°17.027 2°52.59 15.6601 0.082893 0.437895 -2.871232
2007-02-22 08:11:48 51°17.045 2°52.58 15.5836 0.082893 0.437895 -2.871232
2007-02-22 08:11:53 51°17.062 2°52.571 15.621 0.08279 0.437341 -2.871232
2007-02-22 08:11:58 51°17.08 2°52.563 15.6346 0.082893 0.437903 -2.871232
2007-02-22 08:12:03 51°17.097 2°52.553 15.6236 0.082893 0.437903 -2.871232
2007-02-22 08:12:08 51°17.115 2°52.544 15.6501 0.082893 0.437912 -2.871232
2007-02-22 08:12:13 51°17.132 2°52.535 15.5711 0.082893 0.437912 -2.871232
2007-02-22 08:12:18 51°17.15 2°52.526 15.6519 0.082893 0.437912 -2.871232
2007-02-22 08:12:23 51°17.167 2°52.516 15.5787 0.08279 0.437349 -2.871232
2007-02-22 08:12:28 51°17.185 2°52.507 15.573 0.082893 0.437912 -2.871232
2007-02-22 08:12:33 51°17.202 2°52.498 15.6417 0.08279 0.437349 -2.871232
2007-02-22 08:12:38 51°17.22 2°52.488 15.6375 0.08279 0.437357 -2.871232
2007-02-22 08:12:43 51°17.238 2°52.479 15.6319 0.083099 0.439046 -2.871232
2007-02-22 08:12:48 51°17.255 2°52.469 15.6473 0.083099 0.439046 -2.871232
2007-02-22 08:12:53 51°17.273 2°52.459 15.5573 0.08279 0.437357 -2.871232
2007-02-22 08:12:58 51°17.291 2°52.45 15.5853 0.082996 0.438483 -2.871232
2007-02-22 08:13:03 51°17.308 2°52.44 15.5999 0.082996 0.438483 -2.871232
2007-02-22 08:13:08 51°17.326 2°52.432 15.6552 0.082893 0.43792 -2.871232
2007-02-22 08:13:13 51°17.343 2°52.422 15.6811 0.08279 0.437365 -2.871232
2007-02-22 08:13:18 51°17.361 2°52.412 15.6367 0.08279 0.437365 -2.871232
2007-02-22 08:13:23 51°17.378 2°52.398 15.6606 0.082996 0.438499 -2.871232
2007-02-22 08:13:28 51°17.394 2°52.385 15.5678 0.082893 0.437945 -2.871232
2007-02-22 08:13:33 51°17.41 2°52.369 15.6633 0.082893 0.437945 -2.871232
2007-02-22 08:13:38 51°17.426 2°52.354 15.6266 0.082996 0.438508 -2.871232
2007-02-22 08:13:43 51°17.441 2°52.337 15.6713 0.082893 0.437936 -2.871232
2007-02-22 08:13:47 51°17.453 2°52.324 15.651 0.082893 0.437936 -2.871232
2007-02-22 08:13:53 51°17.471 2°52.302 15.6606 0.082893 0.437945 -2.871232
2007-02-22 08:13:58 51°17.485 2°52.281 15.671 0.082893 0.437945 -2.871232
2007-02-22 08:14:03 51°17.498 2°52.26 15.6475 0.082893 0.437945 -2.871232
2007-02-22 08:14:08 51°17.51 2°52.238 15.6032 0.082893 0.437961 -2.871232
2007-02-22 08:14:13 51°17.521 2°52.214 15.6029 0.082893 0.437961 -2.871232
2007-02-22 08:14:18 51°17.532 2°52.19 15.6289 0.082893 0.437961 -2.871232
2007-02-22 08:14:23 51°17.541 2°52.164 15.6595 0.08279 0.437398 -2.871232
2007-02-22 08:14:28 51°17.551 2°52.138 15.5862 0.082996 0.438524 -2.871232
2007-02-22 08:14:33 51°17.559 2°52.111 15.6581 0.082996 0.438524 -2.871232
2007-02-22 08:14:38 51°17.566 2°52.083 15.647 0.082893 0.437953 -2.871232
2007-02-22 08:14:43 51°17.574 2°52.056 15.639 0.082996 0.438508 -2.871232
2007-02-22 08:14:48 51°17.581 2°52.028 15.6225 0.082996 0.438508 -2.871232
2007-02-22 08:14:53 51°17.588 2°52 15.6054 0.082996 0.438508 -2.871232
2007-02-22 08:14:58 51°17.595 2°51.972 15.5734 0.082893 0.437945 -2.871232
2007-02-22 08:15:03 51°17.602 2°51.944 15.5709 0.082585 0.436256 -2.871232
2007-02-22 08:15:08 51°17.609 2°51.916 15.6257 0.082996 0.438499 -2.871232
2007-02-22 08:15:13 51°17.616 2°51.888 15.6354 0.082996 0.438508 -2.871232
2007-02-22 08:15:18 51°17.623 2°51.86 15.6162 0.082996 0.438508 -2.871232
2007-02-22 08:15:23 51°17.631 2°51.832 15.6238 0.082893 0.437945 -2.871232
2007-02-22 08:15:28 51°17.638 2°51.805 15.6106 0.082893 0.437945 -2.871232
2007-02-22 08:15:33 51°17.646 2°51.777 15.6293 0.083099 0.439079 -2.871232
2007-02-22 08:15:38 51°17.654 2°51.749 15.5862 0.08279 0.43739 -2.871232
2007-02-22 08:15:43 51°17.661 2°51.722 15.6271 0.082893 0.437953 -2.871232
2007-02-22 08:15:48 51°17.669 2°51.694 15.6406 0.082893 0.437953 -2.871232
2007-02-22 08:15:53 51°17.678 2°51.667 15.6428 0.082893 0.437953 -2.871232
2007-02-22 08:15:58 51°17.686 2°51.639 15.6107 0.082893 0.437953 -2.871232
2007-02-22 08:16:03 51°17.694 2°51.612 15.5842 0.08279 0.43739 -2.871232
2007-02-22 08:16:08 51°17.702 2°51.584 15.6386 0.082893 0.437953 -2.871232
2007-02-22 08:16:13 51°17.71 2°51.557 15.6369 0.08279 0.437398 -2.871232
2007-02-22 08:16:18 51°17.718 2°51.53 15.5718 0.08279 0.437398 -2.871232
2007-02-22 08:16:23 51°17.726 2°51.502 15.6211 0.082893 0.437969 -2.871232
2007-02-22 08:16:28 51°17.734 2°51.475 15.6037 0.082893 0.437969 -2.871232
2007-02-22 08:16:33 51°17.741 2°51.447 15.6365 0.082893 0.437969 -2.871232
2007-02-22 08:16:38 51°17.75 2°51.419 15.6351 0.08279 0.437415 -2.871232
2007-02-22 08:16:43 51°17.757 2°51.392 15.6083 0.08279 0.437406 -2.871232
2007-02-22 08:16:48 51°17.766 2°51.364 15.6309 0.08279 0.437406 -2.871232
2007-02-22 08:16:53 51°17.774 2°51.336 15.6146 0.08279 0.437415 -2.871232
2007-02-22 08:16:58 51°17.782 2°51.309 15.6266 0.082893 0.437978 -2.871232
2007-02-22 08:17:03 51°17.791 2°51.281 15.6053 0.082996 0.438541 -2.871232
2007-02-22 08:17:08 51°17.8 2°51.254 15.6051 0.082893 0.437978 -2.871232
2007-02-22 08:17:13 51°17.808 2°51.227 15.5744 0.082688 0.436852 -2.871232
2007-02-22 08:17:18 51°17.817 2°51.199 15.649 0.082688 0.436852 -2.871232
2007-02-22 08:17:23 51°17.825 2°51.171 15.6454 0.082893 0.437978 -2.871232
2007-02-22 08:17:28 51°17.834 2°51.144 15.6373 0.082893 0.437978 -2.871232
2007-02-22 08:17:33 51°17.842 2°51.116 15.5524 0.082893 0.437986 -2.871232
2007-02-22 08:17:38 51°17.85 2°51.088 15.6135 0.08279 0.437423 -2.871232
2007-02-22 08:17:43 51°17.859 2°51.061 15.5803 0.082893 0.437986 -2.871232
2007-02-22 08:17:48 51°17.867 2°51.033 15.623 0.082893 0.437986 -2.871232
2007-02-22 08:17:53 51°17.876 2°51.005 15.606 0.082996 0.438557 -2.871232
2007-02-22 08:17:58 51°17.884 2°50.977 15.5992 0.082893 0.437994 -2.871232
2007-02-22 08:18:03 51°17.892 2°50.949 15.6447 0.082893 0.437994 -2.871232
2007-02-22 08:18:08 51°17.901 2°50.922 15.5849 0.082996 0.438557 -2.871232
2007-02-22 08:18:13 51°17.909 2°50.894 15.6254 0.082893 0.437994 -2.871232
2007-02-22 08:18:18 51°17.918 2°50.867 15.5992 0.082893 0.437994 -2.871232
2007-02-22 08:18:23 51°17.926 2°50.839 15.6389 0.082996 0.438557 -2.871232
2007-02-22 08:18:28 51°17.935 2°50.812 15.5955 0.082996 0.438565 -2.871232
2007-02-22 08:18:33 51°17.943 2°50.784 15.6301 0.082893 0.438002 -2.871232
2007-02-22 08:18:38 51°17.952 2°50.757 15.6098 0.082688 0.436876 -2.871232
2007-02-22 08:18:43 51°17.96 2°50.729 15.6274 0.082996 0.438565 -2.871232
2007-02-22 08:18:48 51°17.969 2°50.702 15.6512 0.082996 0.438565 -2.871232
2007-02-22 08:18:53 51°17.977 2°50.674 15.6266 0.083202 0.4397 -2.871232
2007-02-22 08:18:58 51°17.986 2°50.647 15.611 0.082996 0.438574 -2.871232
2007-02-22 08:19:03 51°17.994 2°50.619 15.6482 0.082893 0.438011 -2.871232
2007-02-22 08:19:08 51°18.003 2°50.592 15.5875 0.08279 0.437448 -2.871232
2007-02-22 08:19:13 51°18.011 2°50.565 15.6474 0.082893 0.438011 -2.871232
2007-02-22 08:19:18 51°18.02 2°50.537 15.6342 0.082893 0.438011 -2.871232
2007-02-22 08:19:23 51°18.028 2°50.51 15.6442 0.08279 0.437456 -2.871232
2007-02-22 08:19:28 51°18.037 2°50.482 15.643 0.08279 0.437456 -2.871232
2007-02-22 08:19:33 51°18.045 2°50.455 15.6176 0.082996 0.438582 -2.871232
2007-02-22 08:19:38 51°18.053 2°50.427 15.6352 0.082996 0.43859 -2.871232
2007-02-22 08:19:43 51°18.062 2°50.4 15.6458 0.082688 0.436901 -2.871232
2007-02-22 08:19:48 51°18.07 2°50.373 15.6395 0.082688 0.436901 -2.871232
2007-02-22 08:19:53 51°18.078 2°50.345 15.6479 0.082893 0.438035 -2.871232
2007-02-22 08:19:58 51°18.087 2°50.317 15.625 0.08279 0.437464 -2.871232
2007-02-22 08:20:03 51°18.095 2°50.29 15.6401 0.082996 0.43859 -2.871232
2007-02-22 08:20:08 51°18.104 2°50.262 15.5957 0.082996 0.438598 -2.871232
2007-02-22 08:20:13 51°18.112 2°50.235 15.632 0.083099 0.439162 -2.871232
2007-02-22 08:20:18 51°18.121 2°50.207 15.6264 0.083099 0.439162 -2.871232
2007-02-22 08:20:23 51°18.129 2°50.179 15.6367 0.082893 0.438035 -2.871232
2007-02-22 08:20:28 51°18.137 2°50.152 15.6465 0.08279 0.437481 -2.871232
2007-02-22 08:20:33 51°18.146 2°50.124 15.6072 0.08279 0.437481 -2.871232
2007-02-22 08:20:38 51°18.154 2°50.096 15.6322 0.082893 0.438035 -2.871232
2007-02-22 08:20:43 51°18.162 2°50.069 15.6537 0.082996 0.438607 -2.871232
2007-02-22 08:20:48 51°18.17 2°50.041 15.64 0.082996 0.438607 -2.871232
2007-02-22 08:20:53 51°18.178 2°50.013 15.6638 0.08279 0.437481 -2.871232
2007-02-22 08:20:58 51°18.186 2°49.986 15.638 0.082688 0.436918 -2.871232
2007-02-22 08:21:03 51°18.194 2°49.958 15.6419 0.082996 0.438615 -2.871232
2007-02-22 08:21:08 51°18.202 2°49.93 15.6338 0.082893 0.438052 -2.871232
2007-02-22 08:21:13 51°18.21 2°49.902 15.654 0.082893 0.438044 -2.871232
2007-02-22 08:21:18 51°18.217 2°49.875 15.6533 0.082893 0.438044 -2.871232
2007-02-22 08:21:23 51°18.226 2°49.847 15.6684 0.08279 0.437489 -2.871232
2007-02-22 08:21:28 51°18.233 2°49.819 15.6469 0.082996 0.438615 -2.871232
2007-02-22 08:21:33 51°18.242 2°49.792 15.6429 0.082688 0.436934 -2.871232
2007-02-22 08:21:38 51°18.25 2°49.764 15.6276 0.08279 0.437489 -2.871232
2007-02-22 08:21:43 51°18.258 2°49.736 15.6685 0.082996 0.438623 -2.871232
2007-02-22 08:21:48 51°18.266 2°49.708 15.6545 0.082996 0.438623 -2.871232
2007-02-22 08:21:53 51°18.274 2°49.68 15.67 0.082996 0.438623 -2.871232
2007-02-22 08:21:58 51°18.282 2°49.653 15.6696 0.083099 0.439186 -2.871232
2007-02-22 08:22:03 51°18.29 2°49.625 15.6281 0.082996 0.438623 -2.871232
2007-02-22 08:22:08 51°18.298 2°49.597 15.627 0.082893 0.43806 -2.871232
2007-02-22 08:22:13 51°18.306 2°49.569 15.6667 0.082996 0.438623 -2.871232
2007-02-22 08:22:18 51°18.315 2°49.542 15.6508 0.082996 0.438623 -2.871232
2007-02-22 08:22:23 51°18.323 2°49.514 15.663 0.082893 0.43806 -2.871232
2007-02-22 08:22:28 51°18.331 2°49.487 15.6512 0.082996 0.438632 -2.871232
2007-02-22 08:22:33 51°18.339 2°49.459 15.6636 0.082996 0.438632 -2.871232
2007-02-22 08:22:38 51°18.347 2°49.432 15.6511 0.082893 0.438068 -2.871232
2007-02-22 08:22:43 51°18.355 2°49.404 15.6409 0.082893 0.438068 -2.871232
2007-02-22 08:22:48 51°18.363 2°49.377 15.6343 0.082893 0.438068 -2.871232
2007-02-22 08:22:53 51°18.372 2°49.349 15.6887 0.082688 0.436942 -2.871232
2007-02-22 08:22:58 51°18.38 2°49.322 15.6267 0.082893 0.438077 -2.871232
2007-02-22 08:23:03 51°18.388 2°49.294 15.6533 0.08279 0.437514 -2.871232
2007-02-22 08:23:08 51°18.397 2°49.266 15.6605 0.082893 0.438085 -2.871232
2007-02-22 08:23:13 51°18.405 2°49.239 15.6683 0.082996 0.43864 -2.871232
2007-02-22 08:23:18 51°18.413 2°49.211 15.6854 0.082996 0.43864 -2.871232
2007-02-22 08:23:23 51°18.422 2°49.184 15.6658 0.082893 0.438077 -2.871232
2007-02-22 08:23:28 51°18.43 2°49.156 15.6243 0.083099 0.439211 -2.871232
2007-02-22 08:23:33 51°18.438 2°49.129 15.6289 0.08279 0.437514 -2.871232
2007-02-22 08:23:38 51°18.447 2°49.101 15.6844 0.083202 0.439783 -2.871232
2007-02-22 08:23:43 51°18.455 2°49.073 15.6525 0.082893 0.438085 -2.871232
2007-02-22 08:23:48 51°18.463 2°49.045 15.6519 0.082893 0.438085 -2.871232
2007-02-22 08:23:53 51°18.471 2°49.017 15.6557 0.082893 0.438093 -2.871232
2007-02-22 08:23:58 51°18.479 2°48.989 15.6171 0.082996 0.438656 -2.871232
2007-02-22 08:24:03 51°18.487 2°48.961 15.6331 0.082996 0.438656 -2.871232
2007-02-22 08:24:08 51°18.495 2°48.932 15.6829 0.083305 0.440346 -2.871232
2007-02-22 08:24:13 51°18.504 2°48.904 15.6433 0.082688 0.436975 -2.871232
2007-02-22 08:24:18 51°18.512 2°48.876 15.6663 0.082688 0.436975 -2.871232
2007-02-22 08:24:23 51°18.52 2°48.849 15.6569 0.082893 0.438093 -2.871232
2007-02-22 08:24:28 51°18.528 2°48.82 15.676 0.082996 0.438665 -2.871232
2007-02-22 08:24:33 51°18.536 2°48.792 15.6712 0.082996 0.438673 -2.871232
2007-02-22 08:24:38 51°18.544 2°48.764 15.6726 0.082996 0.438665 -2.871232
2007-02-22 08:24:43 51°18.552 2°48.736 15.6731 0.082996 0.438673 -2.871232
2007-02-22 08:24:48 51°18.561 2°48.707 15.6561 0.082996 0.438673 -2.871232
2007-02-22 08:24:53 51°18.569 2°48.679 15.6538 0.082996 0.438673 -2.871232
2007-02-22 08:24:58 51°18.577 2°48.65 15.6726 0.082893 0.43811 -2.871232
2007-02-22 08:25:03 51°18.585 2°48.622 15.6673 0.083099 0.439244 -2.871232
2007-02-22 08:25:08 51°18.593 2°48.594 15.6356 0.083099 0.439244 -2.871232
2007-02-22 08:25:13 51°18.601 2°48.566 15.6749 0.08279 0.437555 -2.871232
2007-02-22 08:25:18 51°18.61 2°48.537 15.6526 0.08279 0.437555 -2.871232
2007-02-22 08:25:23 51°18.618 2°48.509 15.6748 0.083099 0.439244 -2.871232
2007-02-22 08:25:28 51°18.626 2°48.48 15.6563 0.082688 0.436992 -2.871232
2007-02-22 08:25:33 51°18.635 2°48.452 15.6967 0.08279 0.437563 -2.871232
2007-02-22 08:25:38 51°18.643 2°48.423 15.6903 0.082893 0.438126 -2.871232
2007-02-22 08:25:43 51°18.651 2°48.395 15.6514 0.082996 0.438689 -2.871232
2007-02-22 08:25:48 51°18.659 2°48.366 15.613 0.082996 0.438689 -2.871232
2007-02-22 08:25:53 51°18.667 2°48.338 15.6762 0.082996 0.438698 -2.871232
2007-02-22 08:25:58 51°18.676 2°48.31 15.6682 0.08279 0.437571 -2.871232
2007-02-22 08:26:03 51°18.684 2°48.281 15.6234 0.082893 0.438134 -2.871232
2007-02-22 08:26:08 51°18.692 2°48.253 15.6446 0.082893 0.438143 -2.871232
2007-02-22 08:26:13 51°18.7 2°48.225 15.6327 0.082688 0.437008 -2.871232
2007-02-22 08:26:18 51°18.708 2°48.197 15.6886 0.082688 0.437008 -2.871232
2007-02-22 08:26:23 51°18.716 2°48.169 15.6669 0.082996 0.438706 -2.871232
2007-02-22 08:26:28 51°18.724 2°48.14 15.673 0.08279 0.43758 -2.871232
2007-02-22 08:26:33 51°18.732 2°48.112 15.6805 0.082893 0.438151 -2.871232
2007-02-22 08:26:38 51°18.74 2°48.084 15.6777 0.082893 0.438151 -2.871232
2007-02-22 08:26:43 51°18.748 2°48.056 15.6168 0.082893 0.438151 -2.871232
2007-02-22 08:26:48 51°18.756 2°48.027 15.6848 0.082893 0.438151 -2.871232
2007-02-22 08:26:53 51°18.763 2°47.999 15.6788 0.082893 0.438159 -2.871232
2007-02-22 08:26:58 51°18.771 2°47.971 15.6484 0.082996 0.438714 -2.871232
2007-02-22 08:27:03 51°18.779 2°47.942 15.6957 0.082893 0.438151 -2.871232
2007-02-22 08:27:08 51°18.787 2°47.914 15.6782 0.082893 0.438159 -2.871232
2007-02-22 08:27:13 51°18.794 2°47.886 15.6446 0.08279 0.437596 -2.871232
2007-02-22 08:27:18 51°18.802 2°47.858 15.6592 0.08279 0.437596 -2.871232
2007-02-22 08:27:23 51°18.81 2°47.829 15.668 0.082893 0.438168 -2.871232
2007-02-22 08:27:28 51°18.817 2°47.801 15.6151 0.08279 0.437604 -2.871232
2007-02-22 08:27:33 51°18.825 2°47.773 15.6837 0.082893 0.438168 -2.871232
2007-02-22 08:27:38 51°18.833 2°47.745 15.6719 0.082893 0.438168 -2.871232
2007-02-22 08:27:43 51°18.84 2°47.716 15.6597 0.082996 0.438731 -2.871232
2007-02-22 08:27:48 51°18.848 2°47.688 15.6351 0.082996 0.438731 -2.871232
2007-02-22 08:27:53 51°18.855 2°47.659 15.6828 0.082893 0.438168 -2.871232
2007-02-22 08:27:58 51°18.863 2°47.631 15.66 0.082893 0.438176 -2.871232
2007-02-22 08:28:03 51°18.871 2°47.603 15.6703 0.08279 0.437613 -2.871232
2007-02-22 08:28:08 51°18.878 2°47.574 15.6724 0.082893 0.438176 -2.871232
2007-02-22 08:28:13 51°18.886 2°47.546 15.6588 0.082996 0.438747 -2.871232
2007-02-22 08:28:18 51°18.893 2°47.517 15.6767 0.082996 0.438747 -2.871232
2007-02-22 08:28:23 51°18.901 2°47.489 15.6617 0.082893 0.438176 -2.871232
2007-02-22 08:28:28 51°18.908 2°47.461 15.6732 0.082893 0.438176 -2.871232
2007-02-22 08:28:33 51°18.916 2°47.433 15.6361 0.08279 0.437621 -2.871232
2007-02-22 08:28:38 51°18.923 2°47.404 15.6897 0.082893 0.438184 -2.871232
2007-02-22 08:28:43 51°18.931 2°47.376 15.6266 0.082893 0.438192 -2.871232
2007-02-22 08:28:48 51°18.938 2°47.347 15.6409 0.082893 0.438192 -2.871232
2007-02-22 08:28:53 51°18.946 2°47.319 15.6766 0.082893 0.438184 -2.871232
2007-02-22 08:28:58 51°18.953 2°47.29 15.6817 0.082893 0.438192 -2.871232
2007-02-22 08:29:03 51°18.96 2°47.262 15.6413 0.082893 0.438192 -2.871232
2007-02-22 08:29:08 51°18.968 2°47.234 15.6688 0.082996 0.438756 -2.871232
2007-02-22 08:29:13 51°18.975 2°47.205 15.6638 0.08279 0.437629 -2.871232
2007-02-22 08:29:18 51°18.983 2°47.177 15.6767 0.08279 0.437629 -2.871232
2007-02-22 08:29:23 51°18.99 2°47.149 15.6806 0.082996 0.438756 -2.871232
2007-02-22 08:29:28 51°18.997 2°47.121 15.6466 0.082893 0.438192 -2.871232
2007-02-22 08:29:33 51°19.005 2°47.092 15.6804 0.08279 0.437629 -2.871232
2007-02-22 08:29:38 51°19.013 2°47.064 15.6601 0.082996 0.438764 -2.871232
2007-02-22 08:29:43 51°19.02 2°47.036 15.6829 0.082893 0.438201 -2.871232
2007-02-22 08:29:48 51°19.027 2°47.008 15.6598 0.082893 0.438201 -2.871232
2007-02-22 08:29:53 51°19.034 2°46.979 15.6938 0.082893 0.438201 -2.871232
2007-02-22 08:29:58 51°19.042 2°46.951 15.6993 0.08279 0.437646 -2.871232
2007-02-22 08:30:03 51°19.049 2°46.923 15.6876 0.082893 0.438209 -2.871232
2007-02-22 08:30:08 51°19.056 2°46.894 15.6968 0.082688 0.437082 -2.871232
2007-02-22 08:30:13 51°19.064 2°46.866 15.651 0.08279 0.437646 -2.871232
2007-02-22 08:30:18 51°19.071 2°46.837 15.6896 0.08279 0.437646 -2.871232
2007-02-22 08:30:23 51°19.078 2°46.809 15.6739 0.082893 0.438209 -2.871232
2007-02-22 08:30:28 51°19.085 2°46.781 15.6772 0.082893 0.438217 -2.871232
2007-02-22 08:30:33 51°19.093 2°46.752 15.6403 0.08279 0.437662 -2.871232
2007-02-22 08:30:38 51°19.1 2°46.724 15.6847 0.08279 0.437654 -2.871232
2007-02-22 08:30:43 51°19.107 2°46.696 15.6543 0.08279 0.437662 -2.871232
2007-02-22 08:30:48 51°19.115 2°46.667 15.6849 0.08279 0.437662 -2.871232
2007-02-22 08:30:53 51°19.122 2°46.639 15.6934 0.082996 0.438789 -2.871232
2007-02-22 08:30:58 51°19.13 2°46.611 15.6929 0.08279 0.437662 -2.871232
2007-02-22 08:31:03 51°19.137 2°46.583 15.6478 0.08279 0.43767 -2.871232
2007-02-22 08:31:08 51°19.145 2°46.554 15.6509 0.082893 0.438234 -2.871232
2007-02-22 08:31:13 51°19.152 2°46.526 15.6867 0.08279 0.43767 -2.871232
2007-02-22 08:31:18 51°19.16 2°46.497 15.6618 0.08279 0.43767 -2.871232
2007-02-22 08:31:23 51°19.167 2°46.469 15.6887 0.08279 0.43767 -2.871232
2007-02-22 08:31:28 51°19.174 2°46.441 15.6513 0.082893 0.438234 -2.871232
2007-02-22 08:31:33 51°19.182 2°46.412 15.6921 0.083099 0.43936 -2.871232
2007-02-22 08:31:38 51°19.189 2°46.384 15.6994 0.082893 0.438234 -2.871232
2007-02-22 08:31:43 51°19.197 2°46.356 15.6782 0.082893 0.438242 -2.871232
2007-02-22 08:31:48 51°19.204 2°46.327 15.6866 0.082893 0.438242 -2.871232
2007-02-22 08:31:53 51°19.212 2°46.299 15.6832 0.082996 0.438805 -2.871232
2007-02-22 08:31:58 51°19.22 2°46.271 15.6867 0.083099 0.439369 -2.871232
2007-02-22 08:32:03 51°19.227 2°46.243 15.7014 0.08279 0.437687 -2.871232
2007-02-22 08:32:08 51°19.235 2°46.214 15.7071 0.082893 0.43825 -2.871232
2007-02-22 08:32:13 51°19.242 2°46.186 15.6818 0.08279 0.437695 -2.871232
2007-02-22 08:32:18 51°19.25 2°46.158 15.6765 0.08279 0.437695 -2.871232
2007-02-22 08:32:23 51°19.257 2°46.13 15.6944 0.082893 0.438258 -2.871232
2007-02-22 08:32:28 51°19.265 2°46.101 15.6848 0.082893 0.438258 -2.871232
2007-02-22 08:32:33 51°19.272 2°46.073 15.7058 0.082893 0.43825 -2.871232
2007-02-22 08:32:38 51°19.28 2°46.044 15.6969 0.082688 0.437132 -2.871232
2007-02-22 08:32:43 51°19.287 2°46.016 15.6777 0.082996 0.438813 -2.871232
2007-02-22 08:32:48 51°19.295 2°45.988 15.6822 0.082996 0.438813 -2.871232
2007-02-22 08:32:53 51°19.302 2°45.96 15.7148 0.082893 0.438258 -2.871232
2007-02-22 08:32:58 51°19.31 2°45.931 15.6692 0.08279 0.437703 -2.871232
2007-02-22 08:33:03 51°19.317 2°45.903 15.7065 0.082893 0.438267 -2.871232
2007-02-22 08:33:08 51°19.325 2°45.875 15.707 0.082893 0.438275 -2.871232
2007-02-22 08:33:13 51°19.332 2°45.846 15.6949 0.082893 0.438275 -2.871232
2007-02-22 08:33:18 51°19.34 2°45.817 15.6737 0.082893 0.438275 -2.871232
2007-02-22 08:33:23 51°19.347 2°45.789 15.6981 0.082688 0.43714 -2.871232
2007-02-22 08:33:28 51°19.355 2°45.761 15.7116 0.08279 0.437712 -2.871232
2007-02-22 08:33:33 51°19.363 2°45.732 15.6979 0.082893 0.438275 -2.871232
2007-02-22 08:33:38 51°19.37 2°45.704 15.7054 0.082893 0.438275 -2.871232
2007-02-22 08:33:43 51°19.378 2°45.675 15.6924 0.082893 0.438275 -2.871232
2007-02-22 08:33:48 51°19.386 2°45.647 15.704 0.082893 0.438275 -2.871232
2007-02-22 08:33:53 51°19.394 2°45.619 15.712 0.082893 0.438283 -2.871232
2007-02-22 08:33:58 51°19.402 2°45.591 15.6872 0.082893 0.438283 -2.871232
2007-02-22 08:34:03 51°19.41 2°45.562 15.7097 0.082893 0.438283 -2.871232
2007-02-22 08:34:08 51°19.418 2°45.534 15.7061 0.082893 0.438283 -2.871232
2007-02-22 08:34:13 51°19.426 2°45.506 15.6994 0.082996 0.438847 -2.871232
2007-02-22 08:34:18 51°19.434 2°45.478 15.7245 0.082996 0.438847 -2.871232
2007-02-22 08:34:23 51°19.443 2°45.45 15.6999 0.082688 0.437157 -2.871232
2007-02-22 08:34:28 51°19.451 2°45.421 15.6815 0.082893 0.438291 -2.871232
2007-02-22 08:34:33 51°19.459 2°45.393 15.7136 0.082996 0.438855 -2.871232
2007-02-22 08:34:38 51°19.467 2°45.364 15.7159 0.08279 0.437728 -2.871232
2007-02-22 08:34:43 51°19.476 2°45.336 15.7003 0.082893 0.438291 -2.871232
2007-02-22 08:34:48 51°19.483 2°45.308 15.7238 0.082893 0.438291 -2.871232
2007-02-22 08:34:53 51°19.492 2°45.28 15.721 0.082893 0.438291 -2.871232
2007-02-22 08:34:58 51°19.5 2°45.251 15.6859 0.082996 0.438863 -2.871232
2007-02-22 08:35:03 51°19.508 2°45.223 15.7253 0.082893 0.4383 -2.871232
2007-02-22 08:35:08 51°19.517 2°45.194 15.6969 0.082688 0.437173 -2.871232
2007-02-22 08:35:13 51°19.525 2°45.165 15.6967 0.082893 0.4383 -2.871232
2007-02-22 08:35:18 51°19.534 2°45.135 15.7203 0.082893 0.4383 -2.871232
2007-02-22 08:35:23 51°19.542 2°45.106 15.7115 0.082585 0.43661 -2.871232
2007-02-22 08:35:28 51°19.551 2°45.078 15.6762 0.082893 0.438308 -2.871232
2007-02-22 08:35:33 51°19.559 2°45.049 15.7104 0.08279 0.437745 -2.871232
2007-02-22 08:35:38 51°19.567 2°45.02 15.7098 0.082996 0.43888 -2.871232
2007-02-22 08:35:43 51°19.575 2°44.991 15.7094 0.082688 0.437181 -2.871232
2007-02-22 08:35:48 51°19.583 2°44.963 15.6896 0.082688 0.437181 -2.871232
2007-02-22 08:35:53 51°19.592 2°44.935 15.71 0.08279 0.437753 -2.871232
2007-02-22 08:35:58 51°19.599 2°44.906 15.6839 0.08279 0.437745 -2.871232
2007-02-22 08:36:03 51°19.608 2°44.878 15.7 0.082996 0.43888 -2.871232
2007-02-22 08:36:08 51°19.615 2°44.849 15.7332 0.08279 0.437753 -2.871232
2007-02-22 08:36:13 51°19.623 2°44.821 15.6971 0.083099 0.439443 -2.871232
2007-02-22 08:36:18 51°19.631 2°44.793 15.6994 0.083099 0.439443 -2.871232
2007-02-22 08:36:23 51°19.639 2°44.765 15.7184 0.082688 0.437198 -2.871232
2007-02-22 08:36:28 51°19.647 2°44.737 15.6844 0.082893 0.438316 -2.871232
2007-02-22 08:36:33 51°19.655 2°44.709 15.7241 0.082688 0.437198 -2.871232
2007-02-22 08:36:38 51°19.663 2°44.681 15.6934 0.082893 0.438325 -2.871232
2007-02-22 08:36:43 51°19.67 2°44.652 15.7194 0.082893 0.438325 -2.871232
2007-02-22 08:36:48 51°19.678 2°44.624 15.6851 0.082893 0.438325 -2.871232
2007-02-22 08:36:53 51°19.686 2°44.596 15.7181 0.082688 0.437198 -2.871232
2007-02-22 08:36:58 51°19.694 2°44.568 15.7097 0.08279 0.437769 -2.871232
2007-02-22 08:37:03 51°19.702 2°44.54 15.6959 0.082688 0.437206 -2.871232
2007-02-22 08:37:08 51°19.71 2°44.512 15.7219 0.082996 0.438896 -2.871232
2007-02-22 08:37:13 51°19.718 2°44.484 15.6873 0.08279 0.437769 -2.871232
2007-02-22 08:37:18 51°19.725 2°44.456 15.7256 0.08279 0.437769 -2.871232
2007-02-22 08:37:23 51°19.733 2°44.428 15.7073 0.08279 0.437769 -2.871232
2007-02-22 08:37:28 51°19.741 2°44.4 15.7304 0.082996 0.438905 -2.871232
2007-02-22 08:37:33 51°19.749 2°44.372 15.72 0.082893 0.438341 -2.871232
2007-02-22 08:37:38 51°19.757 2°44.343 15.7244 0.082996 0.438905 -2.871232
2007-02-22 08:37:43 51°19.765 2°44.315 15.7183 0.08279 0.437778 -2.871232
2007-02-22 08:37:48 51°19.773 2°44.287 15.7214 0.08279 0.437778 -2.871232
2007-02-22 08:37:53 51°19.781 2°44.259 15.7247 0.082893 0.438349 -2.871232
2007-02-22 08:37:58 51°19.788 2°44.231 15.7357 0.082893 0.438349 -2.871232
2007-02-22 08:38:03 51°19.796 2°44.202 15.714 0.08279 0.437786 -2.871232
2007-02-22 08:38:08 51°19.804 2°44.175 15.7352 0.08279 0.437786 -2.871232
2007-02-22 08:38:13 51°19.812 2°44.147 15.7301 0.082893 0.438349 -2.871232
2007-02-22 08:38:18 51°19.82 2°44.119 15.7428 0.082893 0.438349 -2.871232
2007-02-22 08:38:23 51°19.828 2°44.091 15.7147 0.08279 0.437786 -2.871232
2007-02-22 08:38:28 51°19.836 2°44.063 15.7401 0.082893 0.438349 -2.871232
2007-02-22 08:38:33 51°19.844 2°44.035 15.7032 0.082585 0.436667 -2.871232
2007-02-22 08:38:38 51°19.851 2°44.007 15.7323 0.082688 0.437231 -2.871232
2007-02-22 08:38:43 51°19.859 2°43.98 15.7267 0.08279 0.437802 -2.871232
2007-02-22 08:38:48 51°19.866 2°43.951 15.7305 0.08279 0.437802 -2.871232
2007-02-22 08:38:53 51°19.874 2°43.923 15.7413 0.082893 0.438366 -2.871232
2007-02-22 08:38:58 51°19.882 2°43.895 15.7351 0.082893 0.438366 -2.871232
2007-02-22 08:39:03 51°19.89 2°43.867 15.7408 0.08279 0.437802 -2.871232
2007-02-22 08:39:08 51°19.898 2°43.839 15.7292 0.08279 0.437802 -2.871232
2007-02-22 08:39:13 51°19.906 2°43.811 15.7208 0.082893 0.438366 -2.871232
2007-02-22 08:39:18 51°19.914 2°43.783 15.7191 0.082893 0.438366 -2.871232
2007-02-22 08:39:23 51°19.922 2°43.755 15.7302 0.08279 0.437811 -2.871232
2007-02-22 08:39:28 51°19.93 2°43.728 15.756 0.08279 0.437802 -2.871232
2007-02-22 08:39:33 51°19.938 2°43.7 15.7218 0.082893 0.438374 -2.871232
2007-02-22 08:39:38 51°19.946 2°43.672 15.7325 0.08279 0.437811 -2.871232
2007-02-22 08:39:43 51°19.954 2°43.644 15.7634 0.08279 0.437819 -2.871232
2007-02-22 08:39:48 51°19.963 2°43.617 15.7261 0.08279 0.437819 -2.871232
2007-02-22 08:39:53 51°19.97 2°43.588 15.7525 0.08279 0.437811 -2.871232
2007-02-22 08:39:58 51°19.979 2°43.561 15.732 0.082893 0.438382 -2.871232
2007-02-22 08:40:03 51°19.986 2°43.533 15.7319 0.082996 0.438946 -2.871232
2007-02-22 08:40:08 51°19.994 2°43.505 15.7603 0.08279 0.437819 -2.871232
2007-02-22 08:40:13 51°20.002 2°43.477 15.7528 0.082996 0.438954 -2.871232
2007-02-22 08:40:18 51°20.01 2°43.449 15.7427 0.082996 0.438954 -2.871232
2007-02-22 08:40:23 51°20.017 2°43.421 15.7329 0.08279 0.437819 -2.871232
2007-02-22 08:40:28 51°20.025 2°43.393 15.7434 0.082996 0.438946 -2.871232
2007-02-22 08:40:33 51°20.033 2°43.365 15.7511 0.082688 0.437264 -2.871232
2007-02-22 08:40:38 51°20.041 2°43.337 15.7597 0.082996 0.438954 -2.871232
2007-02-22 08:40:43 51°20.049 2°43.309 15.7306 0.08279 0.437835 -2.871232
2007-02-22 08:40:48 51°20.057 2°43.281 15.7528 0.08279 0.437835 -2.871232
2007-02-22 08:40:53 51°20.065 2°43.254 15.7569 0.08279 0.437835 -2.871232
2007-02-22 08:40:58 51°20.073 2°43.225 15.7546 0.082893 0.438399 -2.871232
2007-02-22 08:41:03 51°20.081 2°43.198 15.7523 0.083099 0.439534 -2.871232
2007-02-22 08:41:08 51°20.089 2°43.17 15.7604 0.08279 0.437835 -2.871232
2007-02-22 08:41:13 51°20.097 2°43.142 15.7591 0.08279 0.437844 -2.871232
2007-02-22 08:41:18 51°20.105 2°43.114 15.7589 0.08279 0.437844 -2.871232
2007-02-22 08:41:23 51°20.113 2°43.086 15.7211 0.08279 0.437844 -2.871232
2007-02-22 08:41:28 51°20.121 2°43.058 15.7588 0.08279 0.437844 -2.871232
2007-02-22 08:41:33 51°20.129 2°43.03 15.7749 0.082688 0.43728 -2.871232
2007-02-22 08:41:38 51°20.137 2°43.002 15.7441 0.082688 0.43728 -2.871232
2007-02-22 08:41:43 51°20.145 2°42.974 15.7538 0.082893 0.438415 -2.871232
2007-02-22 08:41:48 51°20.153 2°42.946 15.7683 0.082893 0.438415 -2.871232
2007-02-22 08:41:53 51°20.161 2°42.918 15.7655 0.08279 0.437852 -2.871232
2007-02-22 08:41:58 51°20.169 2°42.89 15.7601 0.082688 0.437297 -2.871232
2007-02-22 08:42:03 51°20.177 2°42.861 15.7891 0.08279 0.437852 -2.871232
2007-02-22 08:42:08 51°20.185 2°42.834 15.7384 0.082893 0.438424 -2.871232
2007-02-22 08:42:13 51°20.193 2°42.805 15.777 0.08279 0.43786 -2.871232
2007-02-22 08:42:18 51°20.201 2°42.777 15.7815 0.08279 0.43786 -2.871232
2007-02-22 08:42:23 51°20.209 2°42.749 15.7502 0.082996 0.438987 -2.871232
2007-02-22 08:42:28 51°20.217 2°42.721 15.7581 0.083099 0.439559 -2.871232
2007-02-22 08:42:33 51°20.225 2°42.693 15.7767 0.082893 0.438432 -2.871232
2007-02-22 08:42:38 51°20.233 2°42.665 15.7642 0.082893 0.438424 -2.871232
2007-02-22 08:42:43 51°20.241 2°42.636 15.7719 0.08279 0.437877 -2.871232
2007-02-22 08:42:48 51°20.248 2°42.608 15.7838 0.08279 0.437877 -2.871232
2007-02-22 08:42:53 51°20.256 2°42.58 15.7634 0.08279 0.437868 -2.871232
2007-02-22 08:42:58 51°20.264 2°42.551 15.7933 0.08279 0.437868 -2.871232
2007-02-22 08:43:03 51°20.272 2°42.524 15.7596 0.082585 0.43675 -2.871232
2007-02-22 08:43:08 51°20.28 2°42.495 15.7738 0.08279 0.437877 -2.871232
2007-02-22 08:43:13 51°20.288 2°42.467 15.7516 0.082688 0.437313 -2.871232
2007-02-22 08:43:18 51°20.296 2°42.439 15.7384 0.082688 0.437313 -2.871232
2007-02-22 08:43:23 51°20.304 2°42.411 15.7661 0.082893 0.438449 -2.871232
2007-02-22 08:43:28 51°20.313 2°42.383 15.7829 0.082893 0.438449 -2.871232
2007-02-22 08:43:33 51°20.321 2°42.355 15.7888 0.082893 0.438449 -2.871232
2007-02-22 08:43:38 51°20.329 2°42.327 15.7633 0.08279 0.437885 -2.871232
2007-02-22 08:43:43 51°20.337 2°42.299 15.8001 0.08279 0.437893 -2.871232
2007-02-22 08:43:48 51°20.345 2°42.271 15.7559 0.08279 0.437893 -2.871232
2007-02-22 08:43:53 51°20.353 2°42.243 15.7809 0.082688 0.43733 -2.871232
2007-02-22 08:43:58 51°20.362 2°42.214 15.7729 0.082893 0.438465 -2.871232
2007-02-22 08:44:03 51°20.37 2°42.186 15.7816 0.082893 0.438465 -2.871232
2007-02-22 08:44:08 51°20.378 2°42.158 15.772 0.082893 0.438465 -2.871232
2007-02-22 08:44:13 51°20.385 2°42.129 15.7791 0.082688 0.437338 -2.871232
2007-02-22 08:44:18 51°20.394 2°42.101 15.7629 0.082688 0.437338 -2.871232
2007-02-22 08:44:23 51°20.401 2°42.072 15.7787 0.08279 0.437885 -2.871232
2007-02-22 08:44:28 51°20.41 2°42.044 15.7832 0.082996 0.439029 -2.871232
2007-02-22 08:44:33 51°20.418 2°42.015 15.774 0.082688 0.43733 -2.871232
2007-02-22 08:44:38 51°20.426 2°41.987 15.7896 0.08279 0.437902 -2.871232
2007-02-22 08:44:43 51°20.435 2°41.959 15.802 0.082893 0.438482 -2.871232
2007-02-22 08:44:48 51°20.443 2°41.931 15.7856 0.082893 0.438482 -2.871232
2007-02-22 08:44:53 51°20.451 2°41.903 15.7788 0.082996 0.439045 -2.871232
2007-02-22 08:44:58 51°20.459 2°41.874 15.764 0.082996 0.439045 -2.871232
2007-02-22 08:45:03 51°20.467 2°41.846 15.7772 0.082996 0.439045 -2.871232
2007-02-22 08:45:08 51°20.476 2°41.818 15.7738 0.082996 0.439054 -2.871232
2007-02-22 08:45:13 51°20.484 2°41.79 15.8002 0.082893 0.43849 -2.871232
2007-02-22 08:45:18 51°20.493 2°41.761 15.7668 0.082893 0.43849 -2.871232
2007-02-22 08:45:23 51°20.5 2°41.733 15.7843 0.08279 0.437926 -2.871232
2007-02-22 08:45:28 51°20.509 2°41.704 15.7708 0.082893 0.43849 -2.871232
2007-02-22 08:45:33 51°20.516 2°41.675 15.7749 0.082893 0.43849 -2.871232
2007-02-22 08:45:38 51°20.524 2°41.647 15.7782 0.082688 0.437363 -2.871232
2007-02-22 08:45:43 51°20.532 2°41.619 15.8008 0.082688 0.437363 -2.871232
2007-02-22 08:45:48 51°20.54 2°41.591 15.7801 0.082688 0.437363 -2.871232
2007-02-22 08:45:53 51°20.548 2°41.562 15.8068 0.082893 0.438498 -2.871232
2007-02-22 08:45:58 51°20.556 2°41.534 15.7804 0.082893 0.438498 -2.871232
2007-02-22 08:46:03 51°20.564 2°41.505 15.8131 0.082893 0.438506 -2.871232
2007-02-22 08:46:08 51°20.573 2°41.478 15.7972 0.082893 0.438506 -2.871232
2007-02-22 08:46:13 51°20.581 2°41.45 15.797 0.083099 0.439634 -2.871232
2007-02-22 08:46:18 51°20.589 2°41.421 15.7915 0.083099 0.439634 -2.871232
2007-02-22 08:46:23 51°20.597 2°41.393 15.8144 0.08279 0.437943 -2.871232
2007-02-22 08:46:28 51°20.605 2°41.365 15.7796 0.082893 0.438515 -2.871232
2007-02-22 08:46:33 51°20.613 2°41.337 15.7826 0.082893 0.438515 -2.871232
2007-02-22 08:46:38 51°20.621 2°41.309 15.8053 0.082996 0.439078 -2.871232
2007-02-22 08:46:43 51°20.63 2°41.281 15.8107 0.082893 0.438515 -2.871232
2007-02-22 08:46:48 51°20.638 2°41.253 15.8224 0.082893 0.438515 -2.871232
2007-02-22 08:46:53 51°20.646 2°41.225 15.787 0.08279 0.437959 -2.871232
2007-02-22 08:46:58 51°20.654 2°41.196 15.8153 0.082996 0.439078 -2.871232
2007-02-22 08:47:03 51°20.663 2°41.169 15.7827 0.082893 0.438523 -2.871232
2007-02-22 08:47:08 51°20.67 2°41.141 15.8127 0.082893 0.438523 -2.871232
2007-02-22 08:47:13 51°20.678 2°41.113 15.7942 0.08279 0.437968 -2.871232
2007-02-22 08:47:18 51°20.686 2°41.084 15.815 0.08279 0.437968 -2.871232
2007-02-22 08:47:23 51°20.694 2°41.057 15.8039 0.08279 0.437968 -2.871232
2007-02-22 08:47:28 51°20.703 2°41.028 15.8445 0.082688 0.437404 -2.871232
2007-02-22 08:47:33 51°20.71 2°41 15.8297 0.082996 0.439103 -2.871232
2007-02-22 08:47:38 51°20.716 2°40.971 15.8468 0.082996 0.439112 -2.871232
2007-02-22 08:47:43 51°20.722 2°40.941 15.8408 0.08279 0.437984 -2.871232
2007-02-22 08:47:48 51°20.726 2°40.912 15.807 0.08279 0.437984 -2.871232
2007-02-22 08:47:53 51°20.73 2°40.882 15.8154 0.08279 0.437984 -2.871232
2007-02-22 08:47:58 51°20.734 2°40.852 15.7915 0.082893 0.438548 -2.871232
2007-02-22 08:48:03 51°20.736 2°40.822 15.819 0.08279 0.437984 -2.871232
2007-02-22 08:48:08 51°20.739 2°40.792 15.8146 0.08279 0.437976 -2.871232
2007-02-22 08:48:13 51°20.741 2°40.762 15.8339 0.08279 0.437976 -2.871232
2007-02-22 08:48:18 51°20.743 2°40.732 15.8113 0.08279 0.437976 -2.871232
2007-02-22 08:48:23 51°20.745 2°40.701 15.818 0.08279 0.437984 -2.871232
2007-02-22 08:48:28 51°20.747 2°40.671 15.8396 0.082688 0.43742 -2.871232
2007-02-22 08:48:33 51°20.748 2°40.64 15.8239 0.08279 0.437984 -2.871232
2007-02-22 08:48:38 51°20.751 2°40.61 15.7957 0.08279 0.437992 -2.871232
2007-02-22 08:48:43 51°20.752 2°40.579 15.8221 0.082893 0.438556 -2.871232
2007-02-22 08:48:48 51°20.754 2°40.548 15.827 0.082893 0.438556 -2.871232
2007-02-22 08:48:53 51°20.756 2°40.518 15.8173 0.082996 0.439128 -2.871232
2007-02-22 08:48:58 51°20.758 2°40.488 15.8094 0.082893 0.438564 -2.871232
2007-02-22 08:49:03 51°20.76 2°40.458 15.8231 0.082688 0.437445 -2.871232
2007-02-22 08:49:08 51°20.762 2°40.427 15.824 0.082893 0.438573 -2.871232
2007-02-22 08:49:13 51°20.764 2°40.397 15.8176 0.082996 0.439128 -2.871232
2007-02-22 08:49:18 51°20.765 2°40.367 15.8248 0.082996 0.439128 -2.871232
2007-02-22 08:49:23 51°20.767 2°40.336 15.8018 0.082482 0.43631 -2.871232
2007-02-22 08:49:28 51°20.769 2°40.306 15.8209 0.082688 0.437437 -2.871232
2007-02-22 08:49:33 51°20.771 2°40.276 15.8123 0.08279 0.438009 -2.871232
2007-02-22 08:49:38 51°20.773 2°40.245 15.8271 0.08279 0.438009 -2.871232
2007-02-22 08:49:43 51°20.775 2°40.215 15.8441 0.08279 0.438017 -2.871232
2007-02-22 08:49:48 51°20.777 2°40.184 15.827 0.08279 0.438017 -2.871232
2007-02-22 08:49:53 51°20.779 2°40.154 15.8356 0.08279 0.438009 -2.871232
2007-02-22 08:49:58 51°20.781 2°40.123 15.8181 0.082893 0.438581 -2.871232
2007-02-22 08:50:03 51°20.783 2°40.092 15.8393 0.082893 0.438589 -2.871232
2007-02-22 08:50:08 51°20.785 2°40.062 15.8277 0.08279 0.438034 -2.871232
2007-02-22 08:50:13 51°20.787 2°40.031 15.8421 0.082585 0.436906 -2.871232
2007-02-22 08:50:18 51°20.789 2°40 15.8322 0.082585 0.436906 -2.871232
2007-02-22 08:50:23 51°20.791 2°39.97 15.8484 0.082688 0.43747 -2.871232
2007-02-22 08:50:28 51°20.793 2°39.939 15.8246 0.08279 0.438034 -2.871232
2007-02-22 08:50:33 51°20.795 2°39.908 15.8256 0.08279 0.438034 -2.871232
2007-02-22 08:50:38 51°20.797 2°39.878 15.8393 0.082893 0.438598 -2.871232
2007-02-22 08:50:43 51°20.799 2°39.847 15.8192 0.082893 0.438598 -2.871232
2007-02-22 08:50:48 51°20.801 2°39.816 15.8411 0.082893 0.438598 -2.871232
2007-02-22 08:50:53 51°20.804 2°39.786 15.8554 0.082585 0.436898 -2.871232
2007-02-22 08:50:58 51°20.806 2°39.755 15.8536 0.08279 0.438034 -2.871232
2007-02-22 08:51:03 51°20.808 2°39.724 15.8438 0.08279 0.438042 -2.871232
2007-02-22 08:51:08 51°20.81 2°39.693 15.8356 0.08279 0.43805 -2.871232
2007-02-22 08:51:13 51°20.811 2°39.662 15.8519 0.082893 0.438606 -2.871232
2007-02-22 08:51:18 51°20.814 2°39.632 15.8347 0.082893 0.438606 -2.871232
2007-02-22 08:51:23 51°20.815 2°39.601 15.8484 0.082688 0.437495 -2.871232
2007-02-22 08:51:28 51°20.818 2°39.57 15.8486 0.082688 0.437478 -2.871232
2007-02-22 08:51:33 51°20.82 2°39.539 15.8323 0.082688 0.437487 -2.871232
2007-02-22 08:51:38 51°20.822 2°39.508 15.8428 0.082996 0.439195 -2.871232
2007-02-22 08:51:43 51°20.824 2°39.477 15.8518 0.08279 0.438059 -2.871232
2007-02-22 08:51:48 51°20.827 2°39.447 15.8566 0.08279 0.438059 -2.871232
2007-02-22 08:51:53 51°20.829 2°39.416 15.8423 0.08279 0.438059 -2.871232
2007-02-22 08:51:58 51°20.831 2°39.385 15.8645 0.083099 0.43975 -2.871232
2007-02-22 08:52:03 51°20.834 2°39.354 15.8397 0.082893 0.438622 -2.871232
2007-02-22 08:52:08 51°20.836 2°39.324 15.8442 0.083099 0.43975 -2.871232
2007-02-22 08:52:13 51°20.838 2°39.293 15.8639 0.082688 0.437495 -2.871232
2007-02-22 08:52:18 51°20.84 2°39.263 15.8415 0.082688 0.437495 -2.871232
2007-02-22 08:52:23 51°20.842 2°39.232 15.8563 0.082996 0.439195 -2.871232
2007-02-22 08:52:28 51°20.845 2°39.201 15.8526 0.082893 0.438639 -2.871232
2007-02-22 08:52:33 51°20.847 2°39.171 15.8629 0.082893 0.438639 -2.871232
2007-02-22 08:52:38 51°20.849 2°39.14 15.8658 0.082996 0.439203 -2.871232
2007-02-22 08:52:43 51°20.851 2°39.109 15.8568 0.082996 0.439211 -2.871232
2007-02-22 08:52:48 51°20.854 2°39.079 15.8599 0.082996 0.439211 -2.871232
2007-02-22 08:52:53 51°20.855 2°39.048 15.8549 0.082688 0.43752 -2.871232
2007-02-22 08:52:58 51°20.857 2°39.017 15.8705 0.082893 0.438655 -2.871232
2007-02-22 08:53:03 51°20.859 2°38.987 15.8778 0.082688 0.43752 -2.871232
2007-02-22 08:53:08 51°20.86 2°38.956 15.8468 0.08279 0.438092 -2.871232
2007-02-22 08:53:13 51°20.861 2°38.925 15.8444 0.08279 0.438092 -2.871232
2007-02-22 08:53:18 51°20.862 2°38.894 15.8638 0.08279 0.438092 -2.871232
2007-02-22 08:53:23 51°20.863 2°38.863 15.8601 0.08279 0.438092 -2.871232
2007-02-22 08:53:28 51°20.865 2°38.832 15.8765 0.083099 0.439783 -2.871232
2007-02-22 08:53:33 51°20.866 2°38.801 15.8564 0.082585 0.436964 -2.871232
2007-02-22 08:53:38 51°20.867 2°38.77 15.8607 0.083099 0.439792 -2.871232
2007-02-22 08:53:43 51°20.868 2°38.739 15.8667 0.082893 0.438664 -2.871232
2007-02-22 08:53:48 51°20.869 2°38.708 15.8559 0.082893 0.438664 -2.871232
2007-02-22 08:53:53 51°20.87 2°38.677 15.8827 0.08279 0.4381 -2.871232
2007-02-22 08:53:58 51°20.872 2°38.646 15.8786 0.082893 0.438672 -2.871232
2007-02-22 08:54:03 51°20.873 2°38.615 15.8851 0.082996 0.439236 -2.871232
2007-02-22 08:54:08 51°20.874 2°38.584 15.8546 0.08279 0.438116 -2.871232
2007-02-22 08:54:13 51°20.875 2°38.553 15.8572 0.08279 0.438116 -2.871232
2007-02-22 08:54:18 51°20.876 2°38.522 15.8724 0.08279 0.438116 -2.871232
2007-02-22 08:54:23 51°20.877 2°38.491 15.8642 0.082585 0.436989 -2.871232
2007-02-22 08:54:28 51°20.879 2°38.46 15.8715 0.082893 0.43868 -2.871232
2007-02-22 08:54:33 51°20.88 2°38.429 15.8884 0.083099 0.439808 -2.871232
2007-02-22 08:54:38 51°20.882 2°38.398 15.8765 0.082996 0.439253 -2.871232
2007-02-22 08:54:43 51°20.883 2°38.367 15.8874 0.082893 0.438697 -2.871232
2007-02-22 08:54:48 51°20.885 2°38.337 15.8777 0.082893 0.438697 -2.871232
2007-02-22 08:54:53 51°20.886 2°38.306 15.8888 0.08279 0.438133 -2.871232
2007-02-22 08:54:58 51°20.887 2°38.274 15.8778 0.083099 0.439825 -2.871232
2007-02-22 08:55:03 51°20.889 2°38.243 15.8689 0.08279 0.438133 -2.871232
2007-02-22 08:55:08 51°20.89 2°38.212 15.8957 0.082996 0.439269 -2.871232
2007-02-22 08:55:13 51°20.891 2°38.181 15.8821 0.082893 0.438705 -2.871232
2007-02-22 08:55:18 51°20.892 2°38.15 15.8803 0.082893 0.438705 -2.871232
2007-02-22 08:55:23 51°20.894 2°38.118 15.891 0.08279 0.438141 -2.871232
2007-02-22 08:55:28 51°20.895 2°38.088 15.8875 0.082893 0.438705 -2.871232
2007-02-22 08:55:33 51°20.896 2°38.056 15.8879 0.083099 0.439841 -2.871232
2007-02-22 08:55:38 51°20.897 2°38.025 15.8788 0.08279 0.43815 -2.871232
2007-02-22 08:55:43 51°20.898 2°37.994 15.8875 0.082893 0.438713 -2.871232
2007-02-22 08:55:48 51°20.9 2°37.963 15.8883 0.082893 0.438713 -2.871232
2007-02-22 08:55:53 51°20.901 2°37.932 15.8994 0.08279 0.43815 -2.871232
2007-02-22 08:55:58 51°20.902 2°37.901 15.8935 0.082688 0.437594 -2.871232
2007-02-22 08:56:03 51°20.903 2°37.87 15.9046 0.082893 0.438722 -2.871232
2007-02-22 08:56:08 51°20.905 2°37.839 15.8887 0.082996 0.439286 -2.871232
2007-02-22 08:56:13 51°20.906 2°37.808 15.893 0.082688 0.437594 -2.871232
2007-02-22 08:56:18 51°20.908 2°37.777 15.8727 0.082688 0.437594 -2.871232
2007-02-22 08:56:23 51°20.908 2°37.746 15.9019 0.082996 0.439286 -2.871232
2007-02-22 08:56:28 51°20.911 2°37.715 15.8849 0.082893 0.43873 -2.871232
2007-02-22 08:56:33 51°20.911 2°37.684 15.9051 0.083099 0.439858 -2.871232
2007-02-22 08:56:38 51°20.913 2°37.653 15.8793 0.082688 0.437619 -2.871232
2007-02-22 08:56:43 51°20.914 2°37.622 15.9119 0.082688 0.43761 -2.871232
2007-02-22 08:56:48 51°20.915 2°37.59 15.897 0.082688 0.43761 -2.871232
2007-02-22 08:56:53 51°20.916 2°37.559 15.9095 0.082893 0.438747 -2.871232
2007-02-22 08:56:58 51°20.918 2°37.528 15.9183 0.082893 0.438747 -2.871232
2007-02-22 08:57:03 51°20.92 2°37.497 15.8903 0.082893 0.438755 -2.871232
2007-02-22 08:57:08 51°20.921 2°37.466 15.9153 0.08279 0.438183 -2.871232
2007-02-22 08:57:13 51°20.923 2°37.435 15.9141 0.082893 0.438747 -2.871232
2007-02-22 08:57:18 51°20.924 2°37.404 15.9016 0.082893 0.438747 -2.871232
2007-02-22 08:57:23 51°20.925 2°37.373 15.9096 0.08279 0.438191 -2.871232
2007-02-22 08:57:28 51°20.927 2°37.342 15.8997 0.082893 0.438763 -2.871232
2007-02-22 08:57:33 51°20.927 2°37.311 15.9065 0.082893 0.438747 -2.871232
2007-02-22 08:57:38 51°20.929 2°37.28 15.9214 0.082996 0.439327 -2.871232
2007-02-22 08:57:43 51°20.931 2°37.249 15.913 0.082893 0.438763 -2.871232
2007-02-22 08:57:48 51°20.932 2°37.218 15.9127 0.082893 0.438763 -2.871232
2007-02-22 08:57:53 51°20.933 2°37.187 15.8925 0.082688 0.437644 -2.871232
2007-02-22 08:57:58 51°20.934 2°37.156 15.9214 0.08279 0.438207 -2.871232
2007-02-22 08:58:03 51°20.936 2°37.125 15.9157 0.082996 0.439344 -2.871232
2007-02-22 08:58:08 51°20.937 2°37.093 15.9225 0.082893 0.43878 -2.871232
2007-02-22 08:58:13 51°20.938 2°37.062 15.9209 0.08279 0.438216 -2.871232
2007-02-22 08:58:18 51°20.939 2°37.031 15.9297 0.08279 0.438216 -2.871232
2007-02-22 08:58:23 51°20.941 2°37 15.8934 0.082893 0.43878 -2.871232
2007-02-22 08:58:28 51°20.941 2°36.968 15.9117 0.08279 0.438216 -2.871232
2007-02-22 08:58:33 51°20.943 2°36.937 15.9255 0.082688 0.43766 -2.871232
2007-02-22 08:58:38 51°20.944 2°36.906 15.9197 0.082585 0.437088 -2.871232
2007-02-22 08:58:43 51°20.945 2°36.874 15.9308 0.082688 0.43766 -2.871232
2007-02-22 08:58:48 51°20.947 2°36.843 15.9263 0.082688 0.43766 -2.871232
2007-02-22 08:58:53 51°20.948 2°36.812 15.9288 0.082688 0.43766 -2.871232
2007-02-22 08:58:58 51°20.95 2°36.78 15.9011 0.08279 0.438232 -2.871232
2007-02-22 08:59:03 51°20.951 2°36.749 15.9356 0.082688 0.437677 -2.871232
2007-02-22 08:59:08 51°20.953 2°36.718 15.9215 0.082893 0.438813 -2.871232
2007-02-22 08:59:13 51°20.954 2°36.687 15.9423 0.082893 0.438813 -2.871232
2007-02-22 08:59:18 51°20.956 2°36.655 15.916 0.082893 0.438813 -2.871232
2007-02-22 08:59:23 51°20.957 2°36.624 15.9343 0.082688 0.437685 -2.871232
2007-02-22 08:59:28 51°20.958 2°36.593 15.9071 0.08279 0.438249 -2.871232
2007-02-22 08:59:33 51°20.959 2°36.561 15.9169 0.08279 0.438249 -2.871232
2007-02-22 08:59:38 51°20.961 2°36.53 15.9412 0.08279 0.438249 -2.871232
2007-02-22 08:59:43 51°20.962 2°36.499 15.9416 0.082996 0.439377 -2.871232
2007-02-22 08:59:48 51°20.963 2°36.468 15.9353 0.082996 0.439377 -2.871232
2007-02-22 08:59:53 51°20.964 2°36.437 15.9283 0.082893 0.438813 -2.871232
2007-02-22 08:59:58 51°20.965 2°36.405 15.9406 0.08279 0.438257 -2.871232
2007-02-22 09:00:03 51°20.967 2°36.374 15.9549 0.082893 0.438821 -2.871232
2007-02-22 09:00:08 51°20.968 2°36.343 15.9383 0.082688 0.437693 -2.871232
2007-02-22 09:00:13 51°20.969 2°36.312 15.9509 0.082893 0.438829 -2.871232
2007-02-22 09:00:18 51°20.971 2°36.281 15.9464 0.082893 0.438829 -2.871232
2007-02-22 09:00:23 51°20.973 2°36.249 15.9453 0.082585 0.437146 -2.871232
2007-02-22 09:00:28 51°20.974 2°36.218 15.9294 0.082688 0.437718 -2.871232
2007-02-22 09:00:33 51°20.975 2°36.187 15.9468 0.082893 0.438846 -2.871232
2007-02-22 09:00:38 51°20.976 2°36.156 15.946 0.082585 0.437154 -2.871232
2007-02-22 09:00:43 51°20.978 2°36.125 15.942 0.08279 0.43829 -2.871232
2007-02-22 09:00:48 51°20.979 2°36.094 15.9478 0.08279 0.43829 -2.871232
2007-02-22 09:00:53 51°20.981 2°36.063 15.9455 0.082688 0.437726 -2.871232
2007-02-22 09:00:58 51°20.982 2°36.031 15.9554 0.082893 0.438854 -2.871232
2007-02-22 09:01:03 51°20.983 2°36 15.9576 0.08279 0.43829 -2.871232
2007-02-22 09:01:08 51°20.985 2°35.969 15.9466 0.082893 0.438863 -2.871232
2007-02-22 09:01:13 51°20.986 2°35.938 15.9578 0.082893 0.438854 -2.871232
2007-02-22 09:01:18 51°20.987 2°35.906 15.9597 0.082893 0.438854 -2.871232
2007-02-22 09:01:23 51°20.988 2°35.875 15.9536 0.08279 0.438299 -2.871232
2007-02-22 09:01:28 51°20.989 2°35.844 15.9726 0.082996 0.439427 -2.871232
2007-02-22 09:01:33 51°20.991 2°35.812 15.9432 0.082893 0.438863 -2.871232
2007-02-22 09:01:38 51°20.992 2°35.781 15.9551 0.08279 0.438307 -2.871232
2007-02-22 09:01:43 51°20.993 2°35.75 15.9544 0.082893 0.438871 -2.871232
2007-02-22 09:01:48 51°20.994 2°35.719 15.9712 0.082893 0.438871 -2.871232
2007-02-22 09:01:53 51°20.996 2°35.687 15.9537 0.08279 0.438315 -2.871232
2007-02-22 09:01:58 51°20.997 2°35.657 15.9822 0.08279 0.438307 -2.871232
2007-02-22 09:02:03 51°20.999 2°35.626 15.944 0.082688 0.437759 -2.871232
2007-02-22 09:02:08 51°21 2°35.595 15.9723 0.082688 0.437768 -2.871232
2007-02-22 09:02:13 51°21.001 2°35.563 15.96 0.08279 0.438323 -2.871232
2007-02-22 09:02:18 51°21.003 2°35.532 15.9563 0.08279 0.438323 -2.871232
2007-02-22 09:02:23 51°21.004 2°35.501 15.9675 0.082893 0.438896 -2.871232
2007-02-22 09:02:28 51°21.005 2°35.47 15.9759 0.08279 0.438323 -2.871232
2007-02-22 09:02:33 51°21.006 2°35.439 15.9566 0.082893 0.438896 -2.871232
2007-02-22 09:02:38 51°21.007 2°35.408 15.9663 0.082688 0.437768 -2.871232
2007-02-22 09:02:43 51°21.009 2°35.377 15.9807 0.08279 0.43834 -2.871232
2007-02-22 09:02:48 51°21.01 2°35.346 15.9565 0.08279 0.43834 -2.871232
2007-02-22 09:02:53 51°21.011 2°35.315 15.9697 0.082688 0.437776 -2.871232
2007-02-22 09:02:58 51°21.012 2°35.283 15.9673 0.08279 0.43834 -2.871232
2007-02-22 09:03:03 51°21.013 2°35.252 15.9654 0.082996 0.439477 -2.871232
2007-02-22 09:03:08 51°21.014 2°35.221 15.9797 0.08279 0.438348 -2.871232
2007-02-22 09:03:13 51°21.015 2°35.19 15.9892 0.08279 0.438356 -2.871232
2007-02-22 09:03:18 51°21.017 2°35.159 15.9759 0.08279 0.438356 -2.871232
2007-02-22 09:03:23 51°21.018 2°35.127 15.9696 0.082893 0.438921 -2.871232
2007-02-22 09:03:28 51°21.019 2°35.096 15.9562 0.082688 0.437801 -2.871232
2007-02-22 09:03:33 51°21.021 2°35.065 15.9771 0.082688 0.437801 -2.871232
2007-02-22 09:03:38 51°21.022 2°35.034 15.9831 0.082996 0.439493 -2.871232
2007-02-22 09:03:43 51°21.023 2°35.003 15.9791 0.082688 0.437801 -2.871232
2007-02-22 09:03:48 51°21.025 2°34.971 15.9808 0.082688 0.437801 -2.871232
2007-02-22 09:03:53 51°21.026 2°34.94 15.9759 0.082893 0.438929 -2.871232
2007-02-22 09:03:58 51°21.027 2°34.909 15.9626 0.082893 0.438929 -2.871232
2007-02-22 09:04:03 51°21.028 2°34.878 16.0113 0.08279 0.438373 -2.871232
2007-02-22 09:04:08 51°21.03 2°34.846 16.0057 0.082893 0.438946 -2.871232
2007-02-22 09:04:13 51°21.031 2°34.815 15.9699 0.08279 0.438381 -2.871232
2007-02-22 09:04:18 51°21.032 2°34.784 15.9896 0.08279 0.438381 -2.871232
2007-02-22 09:04:23 51°21.034 2°34.752 16.0013 0.082688 0.437817 -2.871232
2007-02-22 09:04:28 51°21.035 2°34.721 15.974 0.082688 0.437817 -2.871232
2007-02-22 09:04:33 51°21.036 2°34.69 15.987 0.082893 0.438954 -2.871232
2007-02-22 09:04:38 51°21.038 2°34.659 15.9894 0.082893 0.438954 -2.871232
2007-02-22 09:04:43 51°21.039 2°34.628 15.9939 0.082996 0.439526 -2.871232
2007-02-22 09:04:48 51°21.04 2°34.596 15.9786 0.082996 0.439526 -2.871232
2007-02-22 09:04:53 51°21.041 2°34.565 15.9894 0.082893 0.438962 -2.871232
2007-02-22 09:04:58 51°21.043 2°34.534 15.9813 0.082688 0.437842 -2.871232
2007-02-22 09:05:03 51°21.044 2°34.503 15.9914 0.082996 0.439526 -2.871232
2007-02-22 09:05:08 51°21.045 2°34.472 15.9877 0.08279 0.438406 -2.871232
2007-02-22 09:05:13 51°21.046 2°34.44 15.9939 0.082688 0.437842 -2.871232
2007-02-22 09:05:18 51°21.047 2°34.409 16.0042 0.082688 0.437842 -2.871232
2007-02-22 09:05:23 51°21.049 2°34.377 15.9983 0.082585 0.437278 -2.871232
2007-02-22 09:05:28 51°21.05 2°34.346 15.9926 0.08279 0.438398 -2.871232
2007-02-22 09:05:33 51°21.052 2°34.315 15.9813 0.08279 0.438414 -2.871232
2007-02-22 09:05:38 51°21.053 2°34.283 16.0097 0.082893 0.438979 -2.871232
2007-02-22 09:05:43 51°21.055 2°34.252 16.004 0.082893 0.438987 -2.871232
2007-02-22 09:05:48 51°21.056 2°34.221 16.0024 0.082893 0.438987 -2.871232
2007-02-22 09:05:53 51°21.058 2°34.19 15.999 0.082688 0.437858 -2.871232
2007-02-22 09:05:58 51°21.059 2°34.158 16.0002 0.082893 0.438995 -2.871232
2007-02-22 09:06:03 51°21.06 2°34.127 16.0048 0.082893 0.438995 -2.871232
2007-02-22 09:06:08 51°21.061 2°34.095 16.0076 0.082688 0.437867 -2.871232
2007-02-22 09:06:13 51°21.063 2°34.064 15.9945 0.082585 0.437311 -2.871232
2007-02-22 09:06:18 51°21.064 2°34.033 16.0132 0.082585 0.437311 -2.871232
2007-02-22 09:06:23 51°21.066 2°34.001 16.0138 0.08279 0.438431 -2.871232
2007-02-22 09:06:28 51°21.067 2°33.97 15.9973 0.082893 0.439004 -2.871232
2007-02-22 09:06:33 51°21.068 2°33.939 16.0185 0.082996 0.439568 -2.871232
2007-02-22 09:06:38 51°21.07 2°33.907 16.0115 0.083202 0.440705 -2.871232
2007-02-22 09:06:43 51°21.071 2°33.876 16.0253 0.082893 0.439012 -2.871232
2007-02-22 09:06:48 51°21.072 2°33.845 16.0071 0.082893 0.439012 -2.871232
2007-02-22 09:06:53 51°21.073 2°33.813 16.0185 0.082893 0.439012 -2.871232
2007-02-22 09:06:58 51°21.075 2°33.782 16.0115 0.082893 0.43902 -2.871232
2007-02-22 09:07:03 51°21.076 2°33.75 16.0116 0.082893 0.43902 -2.871232
2007-02-22 09:07:08 51°21.077 2°33.719 16.0017 0.082688 0.437892 -2.871232
2007-02-22 09:07:13 51°21.079 2°33.687 16.0286 0.08279 0.438472 -2.871232
2007-02-22 09:07:18 51°21.08 2°33.656 16.0122 0.08279 0.438472 -2.871232
2007-02-22 09:07:23 51°21.082 2°33.624 16.0208 0.082893 0.439037 -2.871232
2007-02-22 09:07:28 51°21.083 2°33.593 16.0002 0.08279 0.438472 -2.871232
2007-02-22 09:07:33 51°21.084 2°33.562 16.0292 0.082893 0.439037 -2.871232
2007-02-22 09:07:38 51°21.086 2°33.53 16.0366 0.082688 0.437908 -2.871232
2007-02-22 09:07:43 51°21.087 2°33.499 16.0125 0.082688 0.437916 -2.871232
2007-02-22 09:07:48 51°21.088 2°33.468 16.0334 0.082688 0.437916 -2.871232
2007-02-22 09:07:53 51°21.089 2°33.437 16.0349 0.082893 0.439045 -2.871232
2007-02-22 09:07:58 51°21.091 2°33.406 16.0147 0.082688 0.437916 -2.871232
2007-02-22 09:08:03 51°21.092 2°33.375 16.0314 0.082893 0.439045 -2.871232
2007-02-22 09:08:08 51°21.094 2°33.344 16.0124 0.08279 0.438489 -2.871232
2007-02-22 09:08:13 51°21.095 2°33.312 16.0194 0.08279 0.438497 -2.871232
2007-02-22 09:08:18 51°21.096 2°33.281 16.0211 0.08279 0.438497 -2.871232
2007-02-22 09:08:23 51°21.097 2°33.25 16.0274 0.08279 0.438497 -2.871232
2007-02-22 09:08:28 51°21.099 2°33.219 16.0079 0.082893 0.439078 -2.871232
2007-02-22 09:08:33 51°21.101 2°33.188 16.0054 0.082996 0.439634 -2.871232
2007-02-22 09:08:38 51°21.104 2°33.158 16.0122 0.082893 0.439062 -2.871232
2007-02-22 09:08:43 51°21.108 2°33.128 16.0009 0.08279 0.438497 -2.871232